<?xml version="1.0" encoding="UTF-8" standalone="no" ?>
<gpx xmlns="http://www.topografix.com/GPX/1/1" xmlns:xsi="http://www.w3.org/2001/XMLSchema-instance" xsi:schemaLocation="http://www.topografix.com/GPX/1/1 http://www.topografix.com/GPX/1/1/gpx.xsd" version="1.1" creator="VisuGPX - https://www.visugpx.com">
  <metadata>
    <name>CCFM 304</name>
    <desc><![CDATA[⛳️/CS.Mons, Cahottes, Awirs, Hozemont, St Georges, Fize, Vaux et Borset, Waleffe, Celles, Donceel, Remicourt, [b]OLEYE[/b], Poucet, Lantremange, Horion, Mons.]]></desc>
  </metadata>
  <trk>
    <name><![CDATA[CCFM 304]]></name>
    <extensions>
      <line xmlns="http://www.topografix.com/GPX/gpx_style/0/2">
        <color>0000FF</color>
        <opacity>1</opacity>
        <width>4</width>
          <extensions>
            <sens>1</sens>
          </extensions>
      </line>
    </extensions>
    <trkseg>
      <trkpt lat="50.62336" lon="5.44817">
        <ele>191</ele>
        <time>2018-08-29T23:49:10Z</time>
      </trkpt>
      <trkpt lat="50.62338" lon="5.44735">
        <ele>188</ele>
        <time>2018-08-29T23:50:10Z</time>
      </trkpt>
      <trkpt lat="50.62348" lon="5.44643">
        <ele>189</ele>
        <time>2018-08-29T23:51:10Z</time>
      </trkpt>
      <trkpt lat="50.62351" lon="5.44619">
        <ele>189</ele>
        <time>2018-08-29T23:52:10Z</time>
      </trkpt>
      <trkpt lat="50.62354" lon="5.44538">
        <ele>188</ele>
        <time>2018-08-29T23:53:10Z</time>
      </trkpt>
      <trkpt lat="50.62354" lon="5.44502">
        <ele>187</ele>
        <time>2018-08-29T23:54:10Z</time>
      </trkpt>
      <trkpt lat="50.62349" lon="5.44417">
        <ele>185</ele>
        <time>2018-08-29T23:55:10Z</time>
      </trkpt>
      <trkpt lat="50.62335" lon="5.44323">
        <ele>186</ele>
        <time>2018-08-29T23:56:10Z</time>
      </trkpt>
      <trkpt lat="50.62307" lon="5.44195">
        <ele>186</ele>
        <time>2018-08-29T23:57:10Z</time>
      </trkpt>
      <trkpt lat="50.62304" lon="5.44176">
        <ele>186</ele>
        <time>2018-08-29T23:58:10Z</time>
      </trkpt>
      <trkpt lat="50.62304" lon="5.44152">
        <ele>186</ele>
        <time>2018-08-29T23:59:10Z</time>
      </trkpt>
      <trkpt lat="50.62314" lon="5.44115">
        <ele>185</ele>
        <time>2018-08-30T00:00:10Z</time>
      </trkpt>
      <trkpt lat="50.62331" lon="5.44082">
        <ele>185</ele>
        <time>2018-08-30T00:01:10Z</time>
      </trkpt>
      <trkpt lat="50.6237" lon="5.44012">
        <ele>186</ele>
        <time>2018-08-30T00:02:10Z</time>
      </trkpt>
      <trkpt lat="50.62373" lon="5.43983">
        <ele>186</ele>
        <time>2018-08-30T00:03:10Z</time>
      </trkpt>
      <trkpt lat="50.62361" lon="5.43919">
        <ele>184</ele>
        <time>2018-08-30T00:04:10Z</time>
      </trkpt>
      <trkpt lat="50.62344" lon="5.43835">
        <ele>183</ele>
        <time>2018-08-30T00:05:10Z</time>
      </trkpt>
      <trkpt lat="50.62338" lon="5.43804">
        <ele>183</ele>
        <time>2018-08-30T00:06:10Z</time>
      </trkpt>
      <trkpt lat="50.62311" lon="5.43719">
        <ele>184</ele>
        <time>2018-08-30T00:07:10Z</time>
      </trkpt>
      <trkpt lat="50.62275" lon="5.43628">
        <ele>186</ele>
        <time>2018-08-30T00:08:10Z</time>
      </trkpt>
      <trkpt lat="50.62245" lon="5.43557">
        <ele>189</ele>
        <time>2018-08-30T00:09:10Z</time>
      </trkpt>
      <trkpt lat="50.62239" lon="5.43537">
        <ele>189</ele>
        <time>2018-08-30T00:10:10Z</time>
      </trkpt>
      <trkpt lat="50.62235" lon="5.43519">
        <ele>189</ele>
        <time>2018-08-30T00:11:10Z</time>
      </trkpt>
      <trkpt lat="50.62232" lon="5.43486">
        <ele>190</ele>
        <time>2018-08-30T00:12:10Z</time>
      </trkpt>
      <trkpt lat="50.62223" lon="5.4347">
        <ele>190</ele>
        <time>2018-08-30T00:13:10Z</time>
      </trkpt>
      <trkpt lat="50.62206" lon="5.43453">
        <ele>189</ele>
        <time>2018-08-30T00:14:10Z</time>
      </trkpt>
      <trkpt lat="50.62189" lon="5.43417">
        <ele>189</ele>
        <time>2018-08-30T00:15:10Z</time>
      </trkpt>
      <trkpt lat="50.62168" lon="5.43359">
        <ele>192</ele>
        <time>2018-08-30T00:16:10Z</time>
      </trkpt>
      <trkpt lat="50.62152" lon="5.43313">
        <ele>193</ele>
        <time>2018-08-30T00:17:10Z</time>
      </trkpt>
      <trkpt lat="50.62119" lon="5.43268">
        <ele>192</ele>
        <time>2018-08-30T00:18:10Z</time>
      </trkpt>
      <trkpt lat="50.62081" lon="5.43228">
        <ele>191</ele>
        <time>2018-08-30T00:19:10Z</time>
      </trkpt>
      <trkpt lat="50.6204" lon="5.43184">
        <ele>191</ele>
        <time>2018-08-30T00:20:10Z</time>
      </trkpt>
      <trkpt lat="50.6198" lon="5.4315">
        <ele>190</ele>
        <time>2018-08-30T00:21:10Z</time>
      </trkpt>
      <trkpt lat="50.61967" lon="5.43137">
        <ele>190</ele>
        <time>2018-08-30T00:22:10Z</time>
      </trkpt>
      <trkpt lat="50.61942" lon="5.43108">
        <ele>190</ele>
        <time>2018-08-30T00:23:10Z</time>
      </trkpt>
      <trkpt lat="50.61915" lon="5.43071">
        <ele>189</ele>
        <time>2018-08-30T00:24:10Z</time>
      </trkpt>
      <trkpt lat="50.6187" lon="5.43005">
        <ele>191</ele>
        <time>2018-08-30T00:25:10Z</time>
      </trkpt>
      <trkpt lat="50.61834" lon="5.42955">
        <ele>191</ele>
        <time>2018-08-30T00:26:10Z</time>
      </trkpt>
      <trkpt lat="50.618" lon="5.42921">
        <ele>189</ele>
        <time>2018-08-30T00:27:10Z</time>
      </trkpt>
      <trkpt lat="50.61776" lon="5.42893">
        <ele>187</ele>
        <time>2018-08-30T00:28:10Z</time>
      </trkpt>
      <trkpt lat="50.61769" lon="5.42875">
        <ele>186</ele>
        <time>2018-08-30T00:29:10Z</time>
      </trkpt>
      <trkpt lat="50.61771" lon="5.42848">
        <ele>186</ele>
        <time>2018-08-30T00:30:10Z</time>
      </trkpt>
      <trkpt lat="50.6178" lon="5.42817">
        <ele>185</ele>
        <time>2018-08-30T00:31:10Z</time>
      </trkpt>
      <trkpt lat="50.61795" lon="5.42777">
        <ele>185</ele>
        <time>2018-08-30T00:32:10Z</time>
      </trkpt>
      <trkpt lat="50.61808" lon="5.42731">
        <ele>185</ele>
        <time>2018-08-30T00:33:10Z</time>
      </trkpt>
      <trkpt lat="50.61817" lon="5.42681">
        <ele>187</ele>
        <time>2018-08-30T00:34:10Z</time>
      </trkpt>
      <trkpt lat="50.6182" lon="5.42648">
        <ele>188</ele>
        <time>2018-08-30T00:35:10Z</time>
      </trkpt>
      <trkpt lat="50.61819" lon="5.42631">
        <ele>189</ele>
        <time>2018-08-30T00:36:10Z</time>
      </trkpt>
      <trkpt lat="50.6181" lon="5.42574">
        <ele>189</ele>
        <time>2018-08-30T00:37:10Z</time>
      </trkpt>
      <trkpt lat="50.61809" lon="5.42537">
        <ele>190</ele>
        <time>2018-08-30T00:38:10Z</time>
      </trkpt>
      <trkpt lat="50.61812" lon="5.42511">
        <ele>191</ele>
        <time>2018-08-30T00:39:10Z</time>
      </trkpt>
      <trkpt lat="50.61816" lon="5.42484">
        <ele>191</ele>
        <time>2018-08-30T00:40:10Z</time>
      </trkpt>
      <trkpt lat="50.61829" lon="5.4245">
        <ele>191</ele>
        <time>2018-08-30T00:41:10Z</time>
      </trkpt>
      <trkpt lat="50.61846" lon="5.42403">
        <ele>193</ele>
        <time>2018-08-30T00:42:10Z</time>
      </trkpt>
      <trkpt lat="50.61878" lon="5.42333">
        <ele>191</ele>
      </trkpt>
      <trkpt lat="50.61895" lon="5.42292">
        <ele>190</ele>
      </trkpt>
      <trkpt lat="50.61902" lon="5.42262">
        <ele>189.7</ele>
      </trkpt>
      <trkpt lat="50.61904" lon="5.42225">
        <ele>188.6</ele>
      </trkpt>
      <trkpt lat="50.619" lon="5.42135">
        <ele>187.4</ele>
      </trkpt>
      <trkpt lat="50.61893" lon="5.42037">
        <ele>187.2</ele>
      </trkpt>
      <trkpt lat="50.61889" lon="5.41928">
        <ele>188</ele>
      </trkpt>
      <trkpt lat="50.61895" lon="5.41863">
        <ele>188.2</ele>
      </trkpt>
      <trkpt lat="50.61904" lon="5.41737">
        <ele>187.5</ele>
      </trkpt>
      <trkpt lat="50.61922" lon="5.41686">
        <ele>187</ele>
      </trkpt>
      <trkpt lat="50.62025" lon="5.41547">
        <ele>186</ele>
      </trkpt>
      <trkpt lat="50.61916" lon="5.41231">
        <ele>183</ele>
      </trkpt>
      <trkpt lat="50.62079" lon="5.41123">
        <ele>181.1</ele>
      </trkpt>
      <trkpt lat="50.62228" lon="5.41094">
        <ele>178</ele>
      </trkpt>
      <trkpt lat="50.62298" lon="5.41195">
        <ele>177.3</ele>
      </trkpt>
      <trkpt lat="50.6277" lon="5.40589">
        <ele>158.4</ele>
      </trkpt>
      <trkpt lat="50.62716" lon="5.40437">
        <ele>157.1</ele>
      </trkpt>
      <trkpt lat="50.62726" lon="5.40192">
        <ele>153.8</ele>
      </trkpt>
      <trkpt lat="50.62697" lon="5.39958">
        <ele>146.9</ele>
      </trkpt>
      <trkpt lat="50.62678" lon="5.39873">
        <ele>144</ele>
      </trkpt>
      <trkpt lat="50.62726" lon="5.39783">
        <ele>144.3</ele>
      </trkpt>
      <trkpt lat="50.62734" lon="5.39761">
        <ele>145</ele>
      </trkpt>
      <trkpt lat="50.62733" lon="5.39751">
        <ele>145.4</ele>
        <extensions>
          <visugpx:TrkExtension xmlns:visugpx="https://www.visugpx.com/editgpx/">
            <visugpx:node>1</visugpx:node>
            </visugpx:TrkExtension>
        </extensions>
      </trkpt>
      <trkpt lat="50.62727" lon="5.39739">
        <ele>145.2</ele>
      </trkpt>
      <trkpt lat="50.62699" lon="5.39695">
        <ele>145.1</ele>
      </trkpt>
      <trkpt lat="50.62666" lon="5.39658">
        <ele>145.6</ele>
      </trkpt>
      <trkpt lat="50.62641" lon="5.39624">
        <ele>146.2</ele>
      </trkpt>
      <trkpt lat="50.62627" lon="5.39595">
        <ele>147.1</ele>
      </trkpt>
      <trkpt lat="50.62611" lon="5.39542">
        <ele>146.4</ele>
        <extensions>
          <visugpx:TrkExtension xmlns:visugpx="https://www.visugpx.com/editgpx/">
            <visugpx:node>2</visugpx:node>
            </visugpx:TrkExtension>
        </extensions>
      </trkpt>
      <trkpt lat="50.62607" lon="5.39535">
        <ele>146.3</ele>
      </trkpt>
      <trkpt lat="50.62597" lon="5.39527">
        <ele>145.5</ele>
      </trkpt>
      <trkpt lat="50.62582" lon="5.3951">
        <ele>144.7</ele>
      </trkpt>
      <trkpt lat="50.62576" lon="5.39494">
        <ele>144.1</ele>
      </trkpt>
      <trkpt lat="50.62549" lon="5.39388">
        <ele>142.6</ele>
      </trkpt>
      <trkpt lat="50.6254" lon="5.39359">
        <ele>141.4</ele>
        <extensions>
          <visugpx:TrkExtension xmlns:visugpx="https://www.visugpx.com/editgpx/">
            <visugpx:node>3</visugpx:node>
            </visugpx:TrkExtension>
        </extensions>
      </trkpt>
      <trkpt lat="50.62546" lon="5.39347">
        <ele>142.7</ele>
      </trkpt>
      <trkpt lat="50.62549" lon="5.39326">
        <ele>143.8</ele>
      </trkpt>
      <trkpt lat="50.62548" lon="5.39293">
        <ele>144.9</ele>
      </trkpt>
      <trkpt lat="50.62543" lon="5.39271">
        <ele>145.3</ele>
      </trkpt>
      <trkpt lat="50.62537" lon="5.3926">
        <ele>145.5</ele>
      </trkpt>
      <trkpt lat="50.62467" lon="5.39182">
        <ele>151.4</ele>
        <extensions>
          <visugpx:TrkExtension xmlns:visugpx="https://www.visugpx.com/editgpx/">
            <visugpx:node>4</visugpx:node>
            </visugpx:TrkExtension>
        </extensions>
      </trkpt>
      <trkpt lat="50.62455" lon="5.39161">
        <ele>152.5</ele>
      </trkpt>
      <trkpt lat="50.6241" lon="5.39015">
        <ele>154.8</ele>
      </trkpt>
      <trkpt lat="50.6238" lon="5.3894">
        <ele>154.1</ele>
      </trkpt>
      <trkpt lat="50.62335" lon="5.38809">
        <ele>151.2</ele>
      </trkpt>
      <trkpt lat="50.62296" lon="5.38728">
        <ele>148.2</ele>
      </trkpt>
      <trkpt lat="50.62289" lon="5.38707">
        <ele>146.5</ele>
      </trkpt>
      <trkpt lat="50.62283" lon="5.38685">
        <ele>144.9</ele>
        <extensions>
          <visugpx:TrkExtension xmlns:visugpx="https://www.visugpx.com/editgpx/">
            <visugpx:node>5</visugpx:node>
            </visugpx:TrkExtension>
        </extensions>
      </trkpt>
      <trkpt lat="50.62274" lon="5.38636">
        <ele>145.4</ele>
      </trkpt>
      <trkpt lat="50.62269" lon="5.38573">
        <ele>146.7</ele>
      </trkpt>
      <trkpt lat="50.62257" lon="5.38508">
        <ele>145.5</ele>
      </trkpt>
      <trkpt lat="50.62249" lon="5.3848">
        <ele>145.9</ele>
      </trkpt>
      <trkpt lat="50.62238" lon="5.38449">
        <ele>145.4</ele>
      </trkpt>
      <trkpt lat="50.62222" lon="5.38415">
        <ele>142.8</ele>
      </trkpt>
      <trkpt lat="50.62206" lon="5.38387">
        <ele>139.9</ele>
      </trkpt>
      <trkpt lat="50.62151" lon="5.38366">
        <ele>140.1</ele>
      </trkpt>
      <trkpt lat="50.6214" lon="5.38358">
        <ele>140.8</ele>
      </trkpt>
      <trkpt lat="50.62116" lon="5.3832">
        <ele>142.3</ele>
      </trkpt>
      <trkpt lat="50.62081" lon="5.38243">
        <ele>144.6</ele>
      </trkpt>
      <trkpt lat="50.62052" lon="5.38164">
        <ele>146.2</ele>
      </trkpt>
      <trkpt lat="50.62014" lon="5.38028">
        <ele>147.5</ele>
      </trkpt>
      <trkpt lat="50.62001" lon="5.3797">
        <ele>149.7</ele>
        <extensions>
          <visugpx:TrkExtension xmlns:visugpx="https://www.visugpx.com/editgpx/">
            <visugpx:node>6</visugpx:node>
            </visugpx:TrkExtension>
        </extensions>
      </trkpt>
      <trkpt lat="50.6195" lon="5.37994">
        <ele>154.6</ele>
      </trkpt>
      <trkpt lat="50.61944" lon="5.37992">
        <ele>155.3</ele>
      </trkpt>
      <trkpt lat="50.61939" lon="5.37989">
        <ele>156</ele>
      </trkpt>
      <trkpt lat="50.6187" lon="5.37911">
        <ele>159.7</ele>
        <extensions>
          <visugpx:TrkExtension xmlns:visugpx="https://www.visugpx.com/editgpx/">
            <visugpx:node>7</visugpx:node>
            </visugpx:TrkExtension>
        </extensions>
      </trkpt>
      <trkpt lat="50.61835" lon="5.37863">
        <ele>161</ele>
      </trkpt>
      <trkpt lat="50.6181" lon="5.37818">
        <ele>162</ele>
      </trkpt>
      <trkpt lat="50.61772" lon="5.37756">
        <ele>163</ele>
      </trkpt>
      <trkpt lat="50.61681" lon="5.37645">
        <ele>165</ele>
      </trkpt>
      <trkpt lat="50.61639" lon="5.37583">
        <ele>167</ele>
      </trkpt>
      <trkpt lat="50.61602" lon="5.37527">
        <ele>167</ele>
      </trkpt>
      <trkpt lat="50.61581" lon="5.37488">
        <ele>168.4</ele>
      </trkpt>
      <trkpt lat="50.6157" lon="5.37462">
        <ele>168.7</ele>
      </trkpt>
      <trkpt lat="50.61559" lon="5.37424">
        <ele>169.7</ele>
      </trkpt>
      <trkpt lat="50.61554" lon="5.37398">
        <ele>170</ele>
      </trkpt>
      <trkpt lat="50.61539" lon="5.37273">
        <ele>170.1</ele>
      </trkpt>
      <trkpt lat="50.61534" lon="5.37251">
        <ele>170.7</ele>
      </trkpt>
      <trkpt lat="50.6153" lon="5.37239">
        <ele>170.9</ele>
        <extensions>
          <visugpx:TrkExtension xmlns:visugpx="https://www.visugpx.com/editgpx/">
            <visugpx:node>8</visugpx:node>
            </visugpx:TrkExtension>
        </extensions>
      </trkpt>
      <trkpt lat="50.61519" lon="5.37214">
        <ele>171</ele>
      </trkpt>
      <trkpt lat="50.6151" lon="5.37198">
        <ele>171</ele>
      </trkpt>
      <trkpt lat="50.61443" lon="5.37111">
        <ele>172</ele>
      </trkpt>
      <trkpt lat="50.61424" lon="5.37082">
        <ele>173</ele>
      </trkpt>
      <trkpt lat="50.61254" lon="5.36791">
        <ele>174.5</ele>
      </trkpt>
      <trkpt lat="50.61252" lon="5.36778">
        <ele>174.1</ele>
        <extensions>
          <visugpx:TrkExtension xmlns:visugpx="https://www.visugpx.com/editgpx/">
            <visugpx:node>9</visugpx:node>
            </visugpx:TrkExtension>
        </extensions>
      </trkpt>
      <trkpt lat="50.61249" lon="5.36751">
        <ele>174</ele>
      </trkpt>
      <trkpt lat="50.61252" lon="5.36717">
        <ele>174</ele>
        <extensions>
          <visugpx:TrkExtension xmlns:visugpx="https://www.visugpx.com/editgpx/">
            <visugpx:node>10</visugpx:node>
            </visugpx:TrkExtension>
        </extensions>
      </trkpt>
      <trkpt lat="50.61231" lon="5.36727">
        <ele>174.7</ele>
      </trkpt>
      <trkpt lat="50.61207" lon="5.36729">
        <ele>175.5</ele>
      </trkpt>
      <trkpt lat="50.61183" lon="5.36723">
        <ele>176</ele>
      </trkpt>
      <trkpt lat="50.61148" lon="5.3671">
        <ele>171.5</ele>
        <extensions>
          <visugpx:TrkExtension xmlns:visugpx="https://www.visugpx.com/editgpx/">
            <visugpx:node>11</visugpx:node>
            </visugpx:TrkExtension>
        </extensions>
      </trkpt>
      <trkpt lat="50.61046" lon="5.36673">
        <ele>178.1</ele>
      </trkpt>
      <trkpt lat="50.61015" lon="5.36655">
        <ele>178.3</ele>
      </trkpt>
      <trkpt lat="50.6085" lon="5.36555">
        <ele>180</ele>
      </trkpt>
      <trkpt lat="50.6073" lon="5.36469">
        <ele>181</ele>
      </trkpt>
      <trkpt lat="50.6069" lon="5.36439">
        <ele>181</ele>
      </trkpt>
      <trkpt lat="50.6065" lon="5.36412">
        <ele>181</ele>
      </trkpt>
      <trkpt lat="50.60584" lon="5.36376">
        <ele>181.5</ele>
      </trkpt>
      <trkpt lat="50.60565" lon="5.36365">
        <ele>181.7</ele>
      </trkpt>
      <trkpt lat="50.60545" lon="5.3635">
        <ele>182</ele>
      </trkpt>
      <trkpt lat="50.60516" lon="5.3632">
        <ele>182.4</ele>
      </trkpt>
      <trkpt lat="50.605" lon="5.36298">
        <ele>182.3</ele>
      </trkpt>
      <trkpt lat="50.60483" lon="5.36279">
        <ele>183</ele>
      </trkpt>
      <trkpt lat="50.60454" lon="5.36252">
        <ele>183</ele>
      </trkpt>
      <trkpt lat="50.60432" lon="5.36226">
        <ele>184</ele>
      </trkpt>
      <trkpt lat="50.60354" lon="5.36129">
        <ele>184.2</ele>
      </trkpt>
      <trkpt lat="50.60296" lon="5.36059">
        <ele>184.1</ele>
      </trkpt>
      <trkpt lat="50.60143" lon="5.35896">
        <ele>185</ele>
      </trkpt>
      <trkpt lat="50.60079" lon="5.35824">
        <ele>186.2</ele>
      </trkpt>
      <trkpt lat="50.60031" lon="5.35784">
        <ele>186.6</ele>
      </trkpt>
      <trkpt lat="50.60019" lon="5.3577">
        <ele>186.5</ele>
      </trkpt>
      <trkpt lat="50.60008" lon="5.35763">
        <ele>186.9</ele>
      </trkpt>
      <trkpt lat="50.59977" lon="5.35764">
        <ele>187.8</ele>
      </trkpt>
      <trkpt lat="50.59961" lon="5.3575">
        <ele>188.4</ele>
      </trkpt>
      <trkpt lat="50.5994" lon="5.35725">
        <ele>188.3</ele>
      </trkpt>
      <trkpt lat="50.59864" lon="5.35604">
        <ele>188.6</ele>
        <extensions>
          <visugpx:TrkExtension xmlns:visugpx="https://www.visugpx.com/editgpx/">
            <visugpx:node>12</visugpx:node>
            </visugpx:TrkExtension>
        </extensions>
      </trkpt>
      <trkpt lat="50.59819" lon="5.35541">
        <ele>189.8</ele>
      </trkpt>
      <trkpt lat="50.59792" lon="5.35496">
        <ele>190.1</ele>
      </trkpt>
      <trkpt lat="50.59737" lon="5.35408">
        <ele>190.2</ele>
      </trkpt>
      <trkpt lat="50.59593" lon="5.35164">
        <ele>191.1</ele>
      </trkpt>
      <trkpt lat="50.59361" lon="5.34813">
        <ele>193.7</ele>
      </trkpt>
      <trkpt lat="50.59322" lon="5.34748">
        <ele>195</ele>
      </trkpt>
      <trkpt lat="50.59313" lon="5.34729">
        <ele>195</ele>
        <extensions>
          <visugpx:TrkExtension xmlns:visugpx="https://www.visugpx.com/editgpx/">
            <visugpx:node>13</visugpx:node>
            </visugpx:TrkExtension>
        </extensions>
      </trkpt>
      <trkpt lat="50.59274" lon="5.34643">
        <ele>197.1</ele>
      </trkpt>
      <trkpt lat="50.59247" lon="5.34568">
        <ele>198.2</ele>
      </trkpt>
      <trkpt lat="50.59138" lon="5.34289">
        <ele>201</ele>
        <extensions>
          <visugpx:TrkExtension xmlns:visugpx="https://www.visugpx.com/editgpx/">
            <visugpx:node>14</visugpx:node>
            </visugpx:TrkExtension>
        </extensions>
      </trkpt>
      <trkpt lat="50.59133" lon="5.34276">
        <ele>201.1</ele>
      </trkpt>
      <trkpt lat="50.59143" lon="5.3425">
        <ele>200.3</ele>
      </trkpt>
      <trkpt lat="50.59196" lon="5.34139">
        <ele>198</ele>
      </trkpt>
      <trkpt lat="50.59202" lon="5.3412">
        <ele>198.7</ele>
        <extensions>
          <visugpx:TrkExtension xmlns:visugpx="https://www.visugpx.com/editgpx/">
            <visugpx:node>15</visugpx:node>
            </visugpx:TrkExtension>
        </extensions>
      </trkpt>
      <trkpt lat="50.59139" lon="5.34088">
        <ele>199.3</ele>
      </trkpt>
      <trkpt lat="50.59111" lon="5.34076">
        <ele>200.3</ele>
      </trkpt>
      <trkpt lat="50.59072" lon="5.34063">
        <ele>199.8</ele>
      </trkpt>
      <trkpt lat="50.59052" lon="5.34051">
        <ele>199.4</ele>
      </trkpt>
      <trkpt lat="50.59044" lon="5.3404">
        <ele>200.1</ele>
        <extensions>
          <visugpx:TrkExtension xmlns:visugpx="https://www.visugpx.com/editgpx/">
            <visugpx:node>16</visugpx:node>
            </visugpx:TrkExtension>
        </extensions>
      </trkpt>
      <trkpt lat="50.59036" lon="5.34003">
        <ele>200.3</ele>
      </trkpt>
      <trkpt lat="50.59031" lon="5.3395">
        <ele>200</ele>
      </trkpt>
      <trkpt lat="50.59024" lon="5.33916">
        <ele>200</ele>
        <extensions>
          <visugpx:TrkExtension xmlns:visugpx="https://www.visugpx.com/editgpx/">
            <visugpx:node>17</visugpx:node>
            </visugpx:TrkExtension>
        </extensions>
      </trkpt>
      <trkpt lat="50.59034" lon="5.33906">
        <ele>200</ele>
      </trkpt>
      <trkpt lat="50.59038" lon="5.33893">
        <ele>200</ele>
      </trkpt>
      <trkpt lat="50.5904" lon="5.3388">
        <ele>200</ele>
      </trkpt>
      <trkpt lat="50.59049" lon="5.33773">
        <ele>200.8</ele>
      </trkpt>
      <trkpt lat="50.5905" lon="5.3372">
        <ele>201.1</ele>
      </trkpt>
      <trkpt lat="50.59047" lon="5.33669">
        <ele>202</ele>
        <extensions>
          <visugpx:TrkExtension xmlns:visugpx="https://www.visugpx.com/editgpx/">
            <visugpx:node>18</visugpx:node>
            </visugpx:TrkExtension>
        </extensions>
      </trkpt>
      <trkpt lat="50.59045" lon="5.33658">
        <ele>202.2</ele>
      </trkpt>
      <trkpt lat="50.59036" lon="5.33618">
        <ele>202.8</ele>
      </trkpt>
      <trkpt lat="50.58972" lon="5.33437">
        <ele>202</ele>
      </trkpt>
      <trkpt lat="50.58958" lon="5.33384">
        <ele>201.8</ele>
      </trkpt>
      <trkpt lat="50.58953" lon="5.33342">
        <ele>201</ele>
        <extensions>
          <visugpx:TrkExtension xmlns:visugpx="https://www.visugpx.com/editgpx/">
            <visugpx:node>19</visugpx:node>
            </visugpx:TrkExtension>
        </extensions>
      </trkpt>
      <trkpt lat="50.5895" lon="5.33322">
        <ele>201</ele>
      </trkpt>
      <trkpt lat="50.58945" lon="5.33229">
        <ele>200</ele>
      </trkpt>
      <trkpt lat="50.58962" lon="5.33025">
        <ele>197.9</ele>
      </trkpt>
      <trkpt lat="50.58963" lon="5.32997">
        <ele>197.4</ele>
      </trkpt>
      <trkpt lat="50.58958" lon="5.32916">
        <ele>197.5</ele>
        <extensions>
          <visugpx:TrkExtension xmlns:visugpx="https://www.visugpx.com/editgpx/">
            <visugpx:node>20</visugpx:node>
            </visugpx:TrkExtension>
        </extensions>
      </trkpt>
      <trkpt lat="50.58932" lon="5.32619">
        <ele>195</ele>
      </trkpt>
      <trkpt lat="50.58926" lon="5.32547">
        <ele>195</ele>
      </trkpt>
      <trkpt lat="50.58925" lon="5.32507">
        <ele>194.5</ele>
      </trkpt>
      <trkpt lat="50.58928" lon="5.32358">
        <ele>194.4</ele>
      </trkpt>
      <trkpt lat="50.58938" lon="5.32089">
        <ele>194.7</ele>
        <extensions>
          <visugpx:TrkExtension xmlns:visugpx="https://www.visugpx.com/editgpx/">
            <visugpx:node>21</visugpx:node>
            </visugpx:TrkExtension>
        </extensions>
      </trkpt>
      <trkpt lat="50.58945" lon="5.31916">
        <ele>196</ele>
      </trkpt>
      <trkpt lat="50.58946" lon="5.31855">
        <ele>197</ele>
      </trkpt>
      <trkpt lat="50.58943" lon="5.31809">
        <ele>197</ele>
      </trkpt>
      <trkpt lat="50.58938" lon="5.31768">
        <ele>197.2</ele>
      </trkpt>
      <trkpt lat="50.58928" lon="5.31716">
        <ele>197.3</ele>
      </trkpt>
      <trkpt lat="50.58877" lon="5.31497">
        <ele>196.4</ele>
      </trkpt>
      <trkpt lat="50.58872" lon="5.31453">
        <ele>196.2</ele>
      </trkpt>
      <trkpt lat="50.58872" lon="5.31424">
        <ele>196.5</ele>
        <extensions>
          <visugpx:TrkExtension xmlns:visugpx="https://www.visugpx.com/editgpx/">
            <visugpx:node>22</visugpx:node>
            </visugpx:TrkExtension>
        </extensions>
      </trkpt>
      <trkpt lat="50.58886" lon="5.31375">
        <ele>196.1</ele>
      </trkpt>
      <trkpt lat="50.58891" lon="5.3133">
        <ele>196</ele>
      </trkpt>
      <trkpt lat="50.58895" lon="5.31132">
        <ele>195.8</ele>
        <extensions>
          <visugpx:TrkExtension xmlns:visugpx="https://www.visugpx.com/editgpx/">
            <visugpx:node>23</visugpx:node>
            </visugpx:TrkExtension>
        </extensions>
      </trkpt>
      <trkpt lat="50.58886" lon="5.30891">
        <ele>193.2</ele>
      </trkpt>
      <trkpt lat="50.58879" lon="5.30866">
        <ele>193.9</ele>
        <extensions>
          <visugpx:TrkExtension xmlns:visugpx="https://www.visugpx.com/editgpx/">
            <visugpx:node>24</visugpx:node>
            </visugpx:TrkExtension>
        </extensions>
      </trkpt>
      <trkpt lat="50.58872" lon="5.30839">
        <ele>193.5</ele>
      </trkpt>
      <trkpt lat="50.58799" lon="5.30688">
        <ele>191.2</ele>
      </trkpt>
      <trkpt lat="50.58769" lon="5.30608">
        <ele>190.7</ele>
      </trkpt>
      <trkpt lat="50.5875" lon="5.30531">
        <ele>190</ele>
      </trkpt>
      <trkpt lat="50.58726" lon="5.30415">
        <ele>189.1</ele>
        <extensions>
          <visugpx:TrkExtension xmlns:visugpx="https://www.visugpx.com/editgpx/">
            <visugpx:node>25</visugpx:node>
            </visugpx:TrkExtension>
        </extensions>
      </trkpt>
      <trkpt lat="50.58724" lon="5.3041">
        <ele>189</ele>
        <extensions>
          <visugpx:TrkExtension xmlns:visugpx="https://www.visugpx.com/editgpx/">
            <visugpx:node>26</visugpx:node>
            </visugpx:TrkExtension>
        </extensions>
      </trkpt>
      <trkpt lat="50.58716" lon="5.30371">
        <ele>188.8</ele>
        <time>2018-08-30T06:20:10Z</time>
      </trkpt>
      <trkpt lat="50.58699" lon="5.30276">
        <ele>186</ele>
        <time>2018-08-30T06:21:10Z</time>
      </trkpt>
      <trkpt lat="50.5869" lon="5.30227">
        <ele>187.9</ele>
      </trkpt>
      <trkpt lat="50.58683" lon="5.30184">
        <ele>188.3</ele>
        <time>2018-08-30T06:22:10Z</time>
      </trkpt>
      <trkpt lat="50.58676" lon="5.30136">
        <ele>188.3</ele>
        <time>2018-08-30T06:23:10Z</time>
      </trkpt>
      <trkpt lat="50.58674" lon="5.30105">
        <ele>188.3</ele>
      </trkpt>
      <trkpt lat="50.58677" lon="5.30029">
        <ele>186</ele>
        <time>2018-08-30T06:24:10Z</time>
      </trkpt>
      <trkpt lat="50.58677" lon="5.29935">
        <ele>186</ele>
        <time>2018-08-30T06:25:10Z</time>
      </trkpt>
      <trkpt lat="50.58677" lon="5.2985">
        <ele>190.4</ele>
        <time>2018-08-30T06:26:10Z</time>
      </trkpt>
      <trkpt lat="50.58673" lon="5.29759">
        <ele>189</ele>
        <time>2018-08-30T06:27:10Z</time>
      </trkpt>
      <trkpt lat="50.5867" lon="5.29734">
        <ele>189</ele>
        <time>2018-08-30T06:28:10Z</time>
      </trkpt>
      <trkpt lat="50.58661" lon="5.29652">
        <ele>191.8</ele>
        <time>2018-08-30T06:29:10Z</time>
      </trkpt>
      <trkpt lat="50.58656" lon="5.29606">
        <ele>191.5</ele>
      </trkpt>
      <trkpt lat="50.5865" lon="5.29558">
        <ele>190.5</ele>
        <time>2018-08-30T06:30:10Z</time>
      </trkpt>
      <trkpt lat="50.58642" lon="5.29475">
        <ele>186</ele>
        <time>2018-08-30T06:31:10Z</time>
      </trkpt>
      <trkpt lat="50.58674" lon="5.29431">
        <ele>187</ele>
        <time>2018-08-30T06:32:10Z</time>
      </trkpt>
      <trkpt lat="50.58786" lon="5.29299">
        <ele>185</ele>
        <time>2018-08-30T06:33:10Z</time>
      </trkpt>
      <trkpt lat="50.58798" lon="5.29282">
        <ele>185</ele>
        <time>2018-08-30T06:34:10Z</time>
      </trkpt>
      <trkpt lat="50.58837" lon="5.29218">
        <ele>183</ele>
        <time>2018-08-30T06:35:10Z</time>
      </trkpt>
      <trkpt lat="50.58912" lon="5.29094">
        <ele>181</ele>
        <time>2018-08-30T06:36:10Z</time>
      </trkpt>
      <trkpt lat="50.58923" lon="5.29077">
        <ele>181</ele>
        <time>2018-08-30T06:37:10Z</time>
      </trkpt>
      <trkpt lat="50.58933" lon="5.29059">
        <ele>182</ele>
        <time>2018-08-30T06:38:10Z</time>
      </trkpt>
      <trkpt lat="50.58924" lon="5.29035">
        <ele>181.3</ele>
        <time>2018-08-30T06:39:10Z</time>
      </trkpt>
      <trkpt lat="50.5891" lon="5.29001">
        <ele>181</ele>
        <time>2018-08-30T06:40:10Z</time>
      </trkpt>
      <trkpt lat="50.58878" lon="5.28922">
        <ele>181</ele>
        <time>2018-08-30T06:41:10Z</time>
      </trkpt>
      <trkpt lat="50.5881" lon="5.28756">
        <ele>178</ele>
        <time>2018-08-30T06:42:10Z</time>
      </trkpt>
      <trkpt lat="50.58785" lon="5.28706">
        <ele>179</ele>
        <time>2018-08-30T06:43:10Z</time>
      </trkpt>
      <trkpt lat="50.58745" lon="5.28641">
        <ele>179</ele>
        <time>2018-08-30T06:44:10Z</time>
      </trkpt>
      <trkpt lat="50.58704" lon="5.28577">
        <ele>178</ele>
        <time>2018-08-30T06:45:10Z</time>
      </trkpt>
      <trkpt lat="50.58642" lon="5.28516">
        <ele>177</ele>
        <time>2018-08-30T06:46:10Z</time>
      </trkpt>
      <trkpt lat="50.58621" lon="5.28492">
        <ele>177</ele>
        <time>2018-08-30T06:47:10Z</time>
      </trkpt>
      <trkpt lat="50.58584" lon="5.28441">
        <ele>176</ele>
        <time>2018-08-30T06:48:10Z</time>
      </trkpt>
      <trkpt lat="50.58574" lon="5.28424">
        <ele>175.2</ele>
      </trkpt>
      <trkpt lat="50.58562" lon="5.284">
        <ele>174.7</ele>
        <time>2018-08-30T06:49:10Z</time>
      </trkpt>
      <trkpt lat="50.58539" lon="5.28346">
        <ele>173</ele>
        <time>2018-08-30T06:50:10Z</time>
      </trkpt>
      <trkpt lat="50.58529" lon="5.28327">
        <ele>173</ele>
        <time>2018-08-30T06:51:10Z</time>
      </trkpt>
      <trkpt lat="50.58476" lon="5.28265">
        <ele>173</ele>
        <time>2018-08-30T06:52:10Z</time>
      </trkpt>
      <trkpt lat="50.58469" lon="5.28257">
        <ele>173</ele>
      </trkpt>
      <trkpt lat="50.58464" lon="5.28246">
        <ele>173</ele>
        <time>2018-08-30T06:53:10Z</time>
      </trkpt>
      <trkpt lat="50.58434" lon="5.28171">
        <ele>174.3</ele>
      </trkpt>
      <trkpt lat="50.58404" lon="5.28102">
        <ele>177</ele>
        <time>2018-08-30T06:54:10Z</time>
      </trkpt>
      <trkpt lat="50.58381" lon="5.2805">
        <ele>180.6</ele>
      </trkpt>
      <trkpt lat="50.58366" lon="5.28021">
        <ele>179</ele>
        <time>2018-08-30T06:55:10Z</time>
      </trkpt>
      <trkpt lat="50.58352" lon="5.27992">
        <ele>180</ele>
        <time>2018-08-30T06:56:10Z</time>
      </trkpt>
      <trkpt lat="50.58337" lon="5.27964">
        <ele>180</ele>
        <time>2018-08-30T06:57:10Z</time>
      </trkpt>
      <trkpt lat="50.58321" lon="5.27934">
        <ele>181</ele>
        <time>2018-08-30T06:58:10Z</time>
      </trkpt>
      <trkpt lat="50.58314" lon="5.27917">
        <ele>181</ele>
        <time>2018-08-30T06:59:10Z</time>
      </trkpt>
      <trkpt lat="50.58301" lon="5.27878">
        <ele>182</ele>
        <time>2018-08-30T07:00:10Z</time>
      </trkpt>
      <trkpt lat="50.58293" lon="5.27837">
        <ele>185.5</ele>
      </trkpt>
      <trkpt lat="50.58291" lon="5.27819">
        <ele>185.7</ele>
        <time>2018-08-30T07:01:10Z</time>
      </trkpt>
      <trkpt lat="50.58289" lon="5.27803">
        <ele>184</ele>
        <time>2018-08-30T07:02:10Z</time>
      </trkpt>
      <trkpt lat="50.58287" lon="5.27757">
        <ele>185</ele>
        <time>2018-08-30T07:03:10Z</time>
      </trkpt>
      <trkpt lat="50.58282" lon="5.27704">
        <ele>186</ele>
        <time>2018-08-30T07:04:10Z</time>
      </trkpt>
      <trkpt lat="50.58274" lon="5.27654">
        <ele>188.5</ele>
        <time>2018-08-30T07:05:10Z</time>
      </trkpt>
      <trkpt lat="50.5827" lon="5.27644">
        <ele>187</ele>
        <time>2018-08-30T07:06:10Z</time>
      </trkpt>
      <trkpt lat="50.58257" lon="5.27602">
        <ele>188</ele>
        <time>2018-08-30T07:07:10Z</time>
      </trkpt>
      <trkpt lat="50.58234" lon="5.27536">
        <ele>188</ele>
        <time>2018-08-30T07:08:10Z</time>
      </trkpt>
      <trkpt lat="50.58223" lon="5.27506">
        <ele>189</ele>
      </trkpt>
      <trkpt lat="50.58205" lon="5.27446">
        <ele>190.6</ele>
        <time>2018-08-30T07:09:10Z</time>
      </trkpt>
      <trkpt lat="50.58149" lon="5.27237">
        <ele>192</ele>
        <time>2018-08-30T07:10:10Z</time>
      </trkpt>
      <trkpt lat="50.58126" lon="5.27152">
        <ele>192</ele>
        <time>2018-08-30T07:11:10Z</time>
      </trkpt>
      <trkpt lat="50.58106" lon="5.27082">
        <ele>195.2</ele>
        <time>2018-08-30T07:12:10Z</time>
      </trkpt>
      <trkpt lat="50.58087" lon="5.27031">
        <ele>193</ele>
        <time>2018-08-30T07:13:10Z</time>
      </trkpt>
      <trkpt lat="50.58071" lon="5.27024">
        <ele>196.1</ele>
      </trkpt>
      <trkpt lat="50.58061" lon="5.27013">
        <ele>196.4</ele>
      </trkpt>
      <trkpt lat="50.58048" lon="5.26995">
        <ele>197</ele>
        <time>2018-08-30T07:14:10Z</time>
      </trkpt>
      <trkpt lat="50.57996" lon="5.26907">
        <ele>194</ele>
        <time>2018-08-30T07:15:10Z</time>
      </trkpt>
      <trkpt lat="50.57981" lon="5.26873">
        <ele>195</ele>
        <time>2018-08-30T07:16:10Z</time>
      </trkpt>
      <trkpt lat="50.57948" lon="5.26793">
        <ele>196</ele>
        <time>2018-08-30T07:17:10Z</time>
      </trkpt>
      <trkpt lat="50.57911" lon="5.26706">
        <ele>196</ele>
        <time>2018-08-30T07:18:10Z</time>
      </trkpt>
      <trkpt lat="50.57879" lon="5.26627">
        <ele>196</ele>
        <time>2018-08-30T07:19:10Z</time>
      </trkpt>
      <trkpt lat="50.57849" lon="5.26542">
        <ele>196</ele>
        <time>2018-08-30T07:20:10Z</time>
      </trkpt>
      <trkpt lat="50.57827" lon="5.26476">
        <ele>195</ele>
        <time>2018-08-30T07:21:10Z</time>
      </trkpt>
      <trkpt lat="50.57799" lon="5.26393">
        <ele>196</ele>
        <time>2018-08-30T07:22:10Z</time>
      </trkpt>
      <trkpt lat="50.57763" lon="5.26307">
        <ele>197</ele>
        <time>2018-08-30T07:23:10Z</time>
      </trkpt>
      <trkpt lat="50.57727" lon="5.26228">
        <ele>198.2</ele>
        <time>2018-08-30T07:24:10Z</time>
      </trkpt>
      <trkpt lat="50.5769" lon="5.26164">
        <ele>198.4</ele>
        <time>2018-08-30T07:25:10Z</time>
      </trkpt>
      <trkpt lat="50.57671" lon="5.26128">
        <ele>198.7</ele>
      </trkpt>
      <trkpt lat="50.57649" lon="5.2608">
        <ele>198.8</ele>
        <time>2018-08-30T07:26:10Z</time>
      </trkpt>
      <trkpt lat="50.57626" lon="5.26034">
        <ele>197.5</ele>
        <time>2018-08-30T07:27:10Z</time>
      </trkpt>
      <trkpt lat="50.57613" lon="5.26014">
        <ele>198</ele>
      </trkpt>
      <trkpt lat="50.57588" lon="5.25961">
        <ele>195</ele>
        <time>2018-08-30T07:28:10Z</time>
      </trkpt>
      <trkpt lat="50.57511" lon="5.25777">
        <ele>196</ele>
        <time>2018-08-30T07:29:10Z</time>
      </trkpt>
      <trkpt lat="50.57497" lon="5.25746">
        <ele>196</ele>
        <time>2018-08-30T07:30:10Z</time>
      </trkpt>
      <trkpt lat="50.57416" lon="5.25558">
        <ele>198</ele>
        <time>2018-08-30T07:31:10Z</time>
      </trkpt>
      <trkpt lat="50.57412" lon="5.25545">
        <ele>199</ele>
        <time>2018-08-30T07:32:10Z</time>
      </trkpt>
      <trkpt lat="50.57432" lon="5.25522">
        <ele>199</ele>
        <time>2018-08-30T07:33:10Z</time>
      </trkpt>
      <trkpt lat="50.57484" lon="5.25458">
        <ele>198</ele>
        <time>2018-08-30T07:34:10Z</time>
      </trkpt>
      <trkpt lat="50.57628" lon="5.25289">
        <ele>194</ele>
        <time>2018-08-30T07:35:10Z</time>
      </trkpt>
      <trkpt lat="50.57639" lon="5.25275">
        <ele>193</ele>
        <time>2018-08-30T07:36:10Z</time>
      </trkpt>
      <trkpt lat="50.57658" lon="5.25243">
        <ele>192</ele>
        <time>2018-08-30T07:37:10Z</time>
      </trkpt>
      <trkpt lat="50.57695" lon="5.25141">
        <ele>192</ele>
        <time>2018-08-30T07:38:10Z</time>
      </trkpt>
      <trkpt lat="50.57716" lon="5.25102">
        <ele>191</ele>
        <time>2018-08-30T07:39:10Z</time>
      </trkpt>
      <trkpt lat="50.57771" lon="5.25032">
        <ele>190</ele>
        <time>2018-08-30T07:40:10Z</time>
      </trkpt>
      <trkpt lat="50.57818" lon="5.24976">
        <ele>190</ele>
        <time>2018-08-30T07:41:10Z</time>
      </trkpt>
      <trkpt lat="50.57864" lon="5.24914">
        <ele>190</ele>
        <time>2018-08-30T07:42:10Z</time>
      </trkpt>
      <trkpt lat="50.57948" lon="5.24795">
        <ele>189</ele>
        <time>2018-08-30T07:43:10Z</time>
      </trkpt>
      <trkpt lat="50.58002" lon="5.24729">
        <ele>189</ele>
        <time>2018-08-30T07:44:10Z</time>
      </trkpt>
      <trkpt lat="50.58016" lon="5.24713">
        <ele>188</ele>
        <time>2018-08-30T07:45:10Z</time>
      </trkpt>
      <trkpt lat="50.58043" lon="5.24686">
        <ele>187</ele>
        <time>2018-08-30T07:46:10Z</time>
      </trkpt>
      <trkpt lat="50.58156" lon="5.24601">
        <ele>187</ele>
        <time>2018-08-30T07:47:10Z</time>
      </trkpt>
      <trkpt lat="50.58192" lon="5.24569">
        <ele>187</ele>
        <time>2018-08-30T07:48:10Z</time>
      </trkpt>
      <trkpt lat="50.58236" lon="5.24518">
        <ele>186</ele>
        <time>2018-08-30T07:49:10Z</time>
      </trkpt>
      <trkpt lat="50.58273" lon="5.24473">
        <ele>183</ele>
        <time>2018-08-30T07:50:10Z</time>
      </trkpt>
      <trkpt lat="50.583" lon="5.24427">
        <ele>181</ele>
        <time>2018-08-30T07:51:10Z</time>
      </trkpt>
      <trkpt lat="50.58337" lon="5.2437">
        <ele>179</ele>
        <time>2018-08-30T07:52:10Z</time>
      </trkpt>
      <trkpt lat="50.58365" lon="5.24335">
        <ele>178</ele>
        <time>2018-08-30T07:53:10Z</time>
      </trkpt>
      <trkpt lat="50.58391" lon="5.24305">
        <ele>178</ele>
        <time>2018-08-30T07:54:10Z</time>
      </trkpt>
      <trkpt lat="50.5845" lon="5.2427">
        <ele>178</ele>
        <time>2018-08-30T07:55:10Z</time>
      </trkpt>
      <trkpt lat="50.58509" lon="5.2423">
        <ele>179</ele>
        <time>2018-08-30T07:56:10Z</time>
      </trkpt>
      <trkpt lat="50.58524" lon="5.24219">
        <ele>180</ele>
        <time>2018-08-30T07:57:10Z</time>
      </trkpt>
      <trkpt lat="50.58565" lon="5.24181">
        <ele>181</ele>
        <time>2018-08-30T07:58:10Z</time>
      </trkpt>
      <trkpt lat="50.5863" lon="5.24101">
        <ele>182</ele>
        <time>2018-08-30T07:59:10Z</time>
      </trkpt>
      <trkpt lat="50.58687" lon="5.24031">
        <ele>184</ele>
        <time>2018-08-30T08:00:10Z</time>
      </trkpt>
      <trkpt lat="50.5872" lon="5.23991">
        <ele>187.4</ele>
        <time>2018-08-30T08:01:10Z</time>
      </trkpt>
      <trkpt lat="50.58747" lon="5.2395">
        <ele>188.3</ele>
        <time>2018-08-30T08:02:10Z</time>
      </trkpt>
      <trkpt lat="50.58802" lon="5.23847">
        <ele>188.9</ele>
      </trkpt>
      <trkpt lat="50.58819" lon="5.238">
        <ele>191</ele>
        <time>2018-08-30T08:03:10Z</time>
      </trkpt>
      <trkpt lat="50.58837" lon="5.23779">
        <ele>191</ele>
        <time>2018-08-30T08:04:10Z</time>
      </trkpt>
      <trkpt lat="50.5885" lon="5.2377">
        <ele>191</ele>
        <time>2018-08-30T08:05:10Z</time>
      </trkpt>
      <trkpt lat="50.58896" lon="5.23751">
        <ele>191</ele>
        <time>2018-08-30T08:06:10Z</time>
      </trkpt>
      <trkpt lat="50.58919" lon="5.23744">
        <ele>191</ele>
        <time>2018-08-30T08:07:10Z</time>
      </trkpt>
      <trkpt lat="50.58947" lon="5.23715">
        <ele>191</ele>
        <time>2018-08-30T08:08:10Z</time>
      </trkpt>
      <trkpt lat="50.58966" lon="5.23694">
        <ele>191</ele>
        <time>2018-08-30T08:09:10Z</time>
      </trkpt>
      <trkpt lat="50.58993" lon="5.23665">
        <ele>191</ele>
        <time>2018-08-30T08:10:10Z</time>
      </trkpt>
      <trkpt lat="50.59073" lon="5.23616">
        <ele>187</ele>
        <time>2018-08-30T08:11:10Z</time>
      </trkpt>
      <trkpt lat="50.59204" lon="5.23574">
        <ele>181</ele>
        <time>2018-08-30T08:12:10Z</time>
      </trkpt>
      <trkpt lat="50.59236" lon="5.23562">
        <ele>180</ele>
        <time>2018-08-30T08:13:10Z</time>
      </trkpt>
      <trkpt lat="50.59265" lon="5.23551">
        <ele>178</ele>
        <time>2018-08-30T08:14:10Z</time>
      </trkpt>
      <trkpt lat="50.59313" lon="5.23534">
        <ele>176</ele>
        <time>2018-08-30T08:15:10Z</time>
      </trkpt>
      <trkpt lat="50.59319" lon="5.23534">
        <ele>175</ele>
        <time>2018-08-30T08:16:10Z</time>
      </trkpt>
      <trkpt lat="50.59327" lon="5.23534">
        <ele>175</ele>
        <time>2018-08-30T08:17:10Z</time>
      </trkpt>
      <trkpt lat="50.59339" lon="5.23531">
        <ele>174</ele>
        <time>2018-08-30T08:18:10Z</time>
      </trkpt>
      <trkpt lat="50.59349" lon="5.23531">
        <ele>174</ele>
        <time>2018-08-30T08:19:10Z</time>
      </trkpt>
      <trkpt lat="50.59413" lon="5.23532">
        <ele>170</ele>
        <time>2018-08-30T08:20:10Z</time>
      </trkpt>
      <trkpt lat="50.59463" lon="5.23517">
        <ele>170</ele>
        <time>2018-08-30T08:21:10Z</time>
      </trkpt>
      <trkpt lat="50.59497" lon="5.23501">
        <ele>171</ele>
        <time>2018-08-30T08:22:10Z</time>
      </trkpt>
      <trkpt lat="50.59516" lon="5.23494">
        <ele>171</ele>
        <time>2018-08-30T08:23:10Z</time>
      </trkpt>
      <trkpt lat="50.59525" lon="5.23499">
        <ele>171</ele>
        <time>2018-08-30T08:24:10Z</time>
      </trkpt>
      <trkpt lat="50.5954" lon="5.23522">
        <ele>171</ele>
        <time>2018-08-30T08:25:10Z</time>
      </trkpt>
      <trkpt lat="50.59556" lon="5.2357">
        <ele>172</ele>
        <time>2018-08-30T08:26:10Z</time>
      </trkpt>
      <trkpt lat="50.59594" lon="5.23574">
        <ele>172</ele>
        <time>2018-08-30T08:27:10Z</time>
      </trkpt>
      <trkpt lat="50.59643" lon="5.23577">
        <ele>173</ele>
        <time>2018-08-30T08:28:10Z</time>
      </trkpt>
      <trkpt lat="50.59715" lon="5.23568">
        <ele>171</ele>
        <time>2018-08-30T08:29:10Z</time>
      </trkpt>
      <trkpt lat="50.59781" lon="5.23558">
        <ele>168</ele>
        <time>2018-08-30T08:30:10Z</time>
      </trkpt>
      <trkpt lat="50.59838" lon="5.23551">
        <ele>165</ele>
        <time>2018-08-30T08:31:10Z</time>
      </trkpt>
      <trkpt lat="50.59898" lon="5.23552">
        <ele>160</ele>
        <time>2018-08-30T08:32:10Z</time>
      </trkpt>
      <trkpt lat="50.59913" lon="5.2355">
        <ele>159</ele>
        <time>2018-08-30T08:33:10Z</time>
      </trkpt>
      <trkpt lat="50.59943" lon="5.23543">
        <ele>158</ele>
        <time>2018-08-30T08:34:10Z</time>
      </trkpt>
      <trkpt lat="50.59971" lon="5.23535">
        <ele>157</ele>
        <time>2018-08-30T08:35:10Z</time>
      </trkpt>
      <trkpt lat="50.59997" lon="5.23525">
        <ele>156</ele>
        <time>2018-08-30T08:36:10Z</time>
      </trkpt>
      <trkpt lat="50.60028" lon="5.2351">
        <ele>156</ele>
        <time>2018-08-30T08:37:10Z</time>
      </trkpt>
      <trkpt lat="50.60038" lon="5.23513">
        <ele>156</ele>
        <time>2018-08-30T08:38:10Z</time>
      </trkpt>
      <trkpt lat="50.60083" lon="5.23517">
        <ele>156</ele>
        <time>2018-08-30T08:39:10Z</time>
      </trkpt>
      <trkpt lat="50.60286" lon="5.23533">
        <ele>165</ele>
        <time>2018-08-30T08:40:10Z</time>
      </trkpt>
      <trkpt lat="50.60318" lon="5.23529">
        <ele>168</ele>
        <time>2018-08-30T08:41:10Z</time>
      </trkpt>
      <trkpt lat="50.60351" lon="5.23519">
        <ele>169</ele>
        <time>2018-08-30T08:42:10Z</time>
      </trkpt>
      <trkpt lat="50.60395" lon="5.23497">
        <ele>169</ele>
        <time>2018-08-30T08:43:10Z</time>
      </trkpt>
      <trkpt lat="50.6057" lon="5.23397">
        <ele>163</ele>
        <time>2018-08-30T08:44:10Z</time>
      </trkpt>
      <trkpt lat="50.60627" lon="5.23371">
        <ele>159</ele>
        <time>2018-08-30T08:45:10Z</time>
      </trkpt>
      <trkpt lat="50.60667" lon="5.23369">
        <ele>158</ele>
        <time>2018-08-30T08:46:10Z</time>
      </trkpt>
      <trkpt lat="50.60726" lon="5.23361">
        <ele>157</ele>
        <time>2018-08-30T08:47:10Z</time>
      </trkpt>
      <trkpt lat="50.60762" lon="5.23357">
        <ele>157</ele>
        <time>2018-08-30T08:48:10Z</time>
      </trkpt>
      <trkpt lat="50.60793" lon="5.23357">
        <ele>158</ele>
        <time>2018-08-30T08:49:10Z</time>
      </trkpt>
      <trkpt lat="50.60857" lon="5.2336">
        <ele>160</ele>
        <time>2018-08-30T08:50:10Z</time>
      </trkpt>
      <trkpt lat="50.60926" lon="5.2336">
        <ele>164</ele>
        <time>2018-08-30T08:51:10Z</time>
      </trkpt>
      <trkpt lat="50.60993" lon="5.23348">
        <ele>165</ele>
        <time>2018-08-30T08:52:10Z</time>
      </trkpt>
      <trkpt lat="50.61052" lon="5.23339">
        <ele>166</ele>
        <time>2018-08-30T08:53:10Z</time>
      </trkpt>
      <trkpt lat="50.61097" lon="5.2333">
        <ele>166</ele>
        <time>2018-08-30T08:54:10Z</time>
      </trkpt>
      <trkpt lat="50.6116" lon="5.23319">
        <ele>165</ele>
        <time>2018-08-30T08:55:10Z</time>
      </trkpt>
      <trkpt lat="50.61206" lon="5.23303">
        <ele>165</ele>
        <time>2018-08-30T08:56:10Z</time>
      </trkpt>
      <trkpt lat="50.61271" lon="5.2326">
        <ele>162</ele>
        <time>2018-08-30T08:57:10Z</time>
      </trkpt>
      <trkpt lat="50.6129" lon="5.23248">
        <ele>162</ele>
        <time>2018-08-30T08:58:10Z</time>
      </trkpt>
      <trkpt lat="50.61312" lon="5.2323">
        <ele>160</ele>
        <time>2018-08-30T08:59:10Z</time>
      </trkpt>
      <trkpt lat="50.61353" lon="5.23201">
        <ele>158</ele>
        <time>2018-08-30T09:00:10Z</time>
      </trkpt>
      <trkpt lat="50.6136" lon="5.23196">
        <ele>157</ele>
        <time>2018-08-30T09:01:10Z</time>
      </trkpt>
      <trkpt lat="50.61353" lon="5.23169">
        <ele>157</ele>
        <time>2018-08-30T09:02:10Z</time>
      </trkpt>
      <trkpt lat="50.61346" lon="5.23146">
        <ele>156</ele>
        <time>2018-08-30T09:03:10Z</time>
      </trkpt>
      <trkpt lat="50.61346" lon="5.23126">
        <ele>156</ele>
        <time>2018-08-30T09:04:10Z</time>
      </trkpt>
      <trkpt lat="50.61351" lon="5.23104">
        <ele>155</ele>
        <time>2018-08-30T09:05:10Z</time>
      </trkpt>
      <trkpt lat="50.61373" lon="5.23053">
        <ele>153</ele>
        <time>2018-08-30T09:06:10Z</time>
      </trkpt>
      <trkpt lat="50.61445" lon="5.22981">
        <ele>151</ele>
        <time>2018-08-30T09:07:10Z</time>
      </trkpt>
      <trkpt lat="50.61459" lon="5.22961">
        <ele>152</ele>
        <time>2018-08-30T09:08:10Z</time>
      </trkpt>
      <trkpt lat="50.61477" lon="5.22933">
        <ele>153</ele>
        <time>2018-08-30T09:09:10Z</time>
      </trkpt>
      <trkpt lat="50.61485" lon="5.22919">
        <ele>153</ele>
        <time>2018-08-30T09:10:10Z</time>
      </trkpt>
      <trkpt lat="50.61489" lon="5.22904">
        <ele>154</ele>
        <time>2018-08-30T09:11:10Z</time>
      </trkpt>
      <trkpt lat="50.61497" lon="5.22867">
        <ele>154</ele>
        <time>2018-08-30T09:12:10Z</time>
      </trkpt>
      <trkpt lat="50.61507" lon="5.22779">
        <ele>157</ele>
        <time>2018-08-30T09:13:10Z</time>
      </trkpt>
      <trkpt lat="50.61488" lon="5.22746">
        <ele>156</ele>
        <time>2018-08-30T09:14:10Z</time>
      </trkpt>
      <trkpt lat="50.61479" lon="5.22722">
        <ele>157</ele>
        <time>2018-08-30T09:15:10Z</time>
      </trkpt>
      <trkpt lat="50.61476" lon="5.22693">
        <ele>158</ele>
        <time>2018-08-30T09:16:10Z</time>
      </trkpt>
      <trkpt lat="50.61473" lon="5.22645">
        <ele>160</ele>
        <time>2018-08-30T09:17:10Z</time>
      </trkpt>
      <trkpt lat="50.61472" lon="5.22621">
        <ele>160</ele>
        <time>2018-08-30T09:18:10Z</time>
      </trkpt>
      <trkpt lat="50.61469" lon="5.22586">
        <ele>161</ele>
        <time>2018-08-30T09:19:10Z</time>
      </trkpt>
      <trkpt lat="50.61466" lon="5.22556">
        <ele>161</ele>
        <time>2018-08-30T09:20:10Z</time>
      </trkpt>
      <trkpt lat="50.6147" lon="5.22476">
        <ele>162</ele>
        <time>2018-08-30T09:21:10Z</time>
      </trkpt>
      <trkpt lat="50.61478" lon="5.22416">
        <ele>164</ele>
        <time>2018-08-30T09:22:10Z</time>
      </trkpt>
      <trkpt lat="50.61489" lon="5.22359">
        <ele>165</ele>
        <time>2018-08-30T09:23:10Z</time>
      </trkpt>
      <trkpt lat="50.61514" lon="5.2228">
        <ele>165</ele>
        <time>2018-08-30T09:24:10Z</time>
      </trkpt>
      <trkpt lat="50.61528" lon="5.22238">
        <ele>165</ele>
        <time>2018-08-30T09:25:10Z</time>
      </trkpt>
      <trkpt lat="50.61548" lon="5.22177">
        <ele>166</ele>
        <time>2018-08-30T09:26:10Z</time>
      </trkpt>
      <trkpt lat="50.61573" lon="5.22096">
        <ele>166</ele>
        <time>2018-08-30T09:27:10Z</time>
      </trkpt>
      <trkpt lat="50.61591" lon="5.22032">
        <ele>165</ele>
        <time>2018-08-30T09:28:10Z</time>
      </trkpt>
      <trkpt lat="50.6162" lon="5.21884">
        <ele>163</ele>
        <time>2018-08-30T09:29:10Z</time>
      </trkpt>
      <trkpt lat="50.61649" lon="5.21764">
        <ele>161</ele>
        <time>2018-08-30T09:30:10Z</time>
      </trkpt>
      <trkpt lat="50.61656" lon="5.21729">
        <ele>161</ele>
        <time>2018-08-30T09:31:10Z</time>
      </trkpt>
      <trkpt lat="50.6166" lon="5.21691">
        <ele>160</ele>
        <time>2018-08-30T09:32:10Z</time>
      </trkpt>
      <trkpt lat="50.61664" lon="5.2164">
        <ele>158</ele>
        <time>2018-08-30T09:33:10Z</time>
      </trkpt>
      <trkpt lat="50.61669" lon="5.21593">
        <ele>157</ele>
        <time>2018-08-30T09:34:10Z</time>
      </trkpt>
      <trkpt lat="50.61675" lon="5.21513">
        <ele>156</ele>
        <time>2018-08-30T09:35:10Z</time>
      </trkpt>
      <trkpt lat="50.61677" lon="5.21482">
        <ele>155</ele>
        <time>2018-08-30T09:36:10Z</time>
      </trkpt>
      <trkpt lat="50.61679" lon="5.21432">
        <ele>154</ele>
        <time>2018-08-30T09:37:10Z</time>
      </trkpt>
      <trkpt lat="50.61679" lon="5.21385">
        <ele>153</ele>
        <time>2018-08-30T09:38:10Z</time>
      </trkpt>
      <trkpt lat="50.6168" lon="5.21341">
        <ele>151</ele>
        <time>2018-08-30T09:39:10Z</time>
      </trkpt>
      <trkpt lat="50.61687" lon="5.21291">
        <ele>150</ele>
        <time>2018-08-30T09:40:10Z</time>
      </trkpt>
      <trkpt lat="50.61692" lon="5.21246">
        <ele>149</ele>
        <time>2018-08-30T09:41:10Z</time>
      </trkpt>
      <trkpt lat="50.61699" lon="5.212">
        <ele>148</ele>
        <time>2018-08-30T09:42:10Z</time>
      </trkpt>
      <trkpt lat="50.61708" lon="5.21162">
        <ele>147</ele>
        <time>2018-08-30T09:43:10Z</time>
      </trkpt>
      <trkpt lat="50.61719" lon="5.21122">
        <ele>145</ele>
        <time>2018-08-30T09:44:10Z</time>
      </trkpt>
      <trkpt lat="50.61729" lon="5.21084">
        <ele>144</ele>
        <time>2018-08-30T09:45:10Z</time>
      </trkpt>
      <trkpt lat="50.61743" lon="5.21031">
        <ele>142</ele>
        <time>2018-08-30T09:46:10Z</time>
      </trkpt>
      <trkpt lat="50.61752" lon="5.20994">
        <ele>141</ele>
        <time>2018-08-30T09:47:10Z</time>
      </trkpt>
      <trkpt lat="50.61758" lon="5.20947">
        <ele>141</ele>
        <time>2018-08-30T09:48:10Z</time>
      </trkpt>
      <trkpt lat="50.61767" lon="5.2093">
        <ele>140</ele>
        <time>2018-08-30T09:49:10Z</time>
      </trkpt>
      <trkpt lat="50.61767" lon="5.2091">
        <ele>140</ele>
        <time>2018-08-30T09:50:10Z</time>
      </trkpt>
      <trkpt lat="50.61761" lon="5.20865">
        <ele>140</ele>
        <time>2018-08-30T09:51:10Z</time>
      </trkpt>
      <trkpt lat="50.61751" lon="5.20833">
        <ele>139</ele>
        <time>2018-08-30T09:52:10Z</time>
      </trkpt>
      <trkpt lat="50.61722" lon="5.20762">
        <ele>141</ele>
        <time>2018-08-30T09:53:10Z</time>
      </trkpt>
      <trkpt lat="50.61705" lon="5.20693">
        <ele>141</ele>
        <time>2018-08-30T09:54:10Z</time>
      </trkpt>
      <trkpt lat="50.61693" lon="5.206">
        <ele>141</ele>
        <time>2018-08-30T09:55:10Z</time>
      </trkpt>
      <trkpt lat="50.6169" lon="5.20552">
        <ele>141</ele>
        <time>2018-08-30T09:56:10Z</time>
      </trkpt>
      <trkpt lat="50.6169" lon="5.20524">
        <ele>142</ele>
        <time>2018-08-30T09:57:10Z</time>
      </trkpt>
      <trkpt lat="50.61686" lon="5.20488">
        <ele>142</ele>
        <time>2018-08-30T09:58:10Z</time>
      </trkpt>
      <trkpt lat="50.61714" lon="5.2044">
        <ele>144</ele>
        <time>2018-08-30T09:59:10Z</time>
      </trkpt>
      <trkpt lat="50.61751" lon="5.20379">
        <ele>148</ele>
        <time>2018-08-30T10:00:10Z</time>
      </trkpt>
      <trkpt lat="50.61758" lon="5.20364">
        <ele>148</ele>
        <time>2018-08-30T10:01:10Z</time>
      </trkpt>
      <trkpt lat="50.61768" lon="5.20311">
        <ele>150</ele>
        <time>2018-08-30T10:02:10Z</time>
      </trkpt>
      <trkpt lat="50.61783" lon="5.20229">
        <ele>153</ele>
        <time>2018-08-30T10:03:10Z</time>
      </trkpt>
      <trkpt lat="50.61794" lon="5.20181">
        <ele>156</ele>
        <time>2018-08-30T10:04:10Z</time>
      </trkpt>
      <trkpt lat="50.61808" lon="5.2015">
        <ele>158</ele>
        <time>2018-08-30T10:05:10Z</time>
      </trkpt>
      <trkpt lat="50.61823" lon="5.20126">
        <ele>160</ele>
        <time>2018-08-30T10:06:10Z</time>
      </trkpt>
      <trkpt lat="50.61838" lon="5.20101">
        <ele>161</ele>
        <time>2018-08-30T10:07:10Z</time>
      </trkpt>
      <trkpt lat="50.61844" lon="5.20087">
        <ele>162</ele>
        <time>2018-08-30T10:08:10Z</time>
      </trkpt>
      <trkpt lat="50.61851" lon="5.20072">
        <ele>163</ele>
        <time>2018-08-30T10:09:10Z</time>
      </trkpt>
      <trkpt lat="50.61856" lon="5.20055">
        <ele>163</ele>
        <time>2018-08-30T10:10:10Z</time>
      </trkpt>
      <trkpt lat="50.61862" lon="5.20038">
        <ele>164</ele>
        <time>2018-08-30T10:11:10Z</time>
      </trkpt>
      <trkpt lat="50.61877" lon="5.20005">
        <ele>165</ele>
        <time>2018-08-30T10:12:10Z</time>
      </trkpt>
      <trkpt lat="50.61885" lon="5.19989">
        <ele>165</ele>
        <time>2018-08-30T10:13:10Z</time>
      </trkpt>
      <trkpt lat="50.61918" lon="5.19943">
        <ele>167</ele>
        <time>2018-08-30T10:14:10Z</time>
      </trkpt>
      <trkpt lat="50.61943" lon="5.19914">
        <ele>168</ele>
        <time>2018-08-30T10:15:10Z</time>
      </trkpt>
      <trkpt lat="50.61977" lon="5.1987">
        <ele>170</ele>
        <time>2018-08-30T10:16:10Z</time>
      </trkpt>
      <trkpt lat="50.62" lon="5.19842">
        <ele>171</ele>
        <time>2018-08-30T10:17:10Z</time>
      </trkpt>
      <trkpt lat="50.62019" lon="5.19814">
        <ele>170</ele>
        <time>2018-08-30T10:18:10Z</time>
      </trkpt>
      <trkpt lat="50.62037" lon="5.19784">
        <ele>169</ele>
        <time>2018-08-30T10:19:10Z</time>
      </trkpt>
      <trkpt lat="50.62061" lon="5.19752">
        <ele>169</ele>
        <time>2018-08-30T10:20:10Z</time>
      </trkpt>
      <trkpt lat="50.62083" lon="5.19736">
        <ele>169</ele>
        <time>2018-08-30T10:21:10Z</time>
      </trkpt>
      <trkpt lat="50.62095" lon="5.19724">
        <ele>169</ele>
        <time>2018-08-30T10:22:10Z</time>
      </trkpt>
      <trkpt lat="50.62144" lon="5.19655">
        <ele>167</ele>
        <time>2018-08-30T10:23:10Z</time>
      </trkpt>
      <trkpt lat="50.6217" lon="5.19615">
        <ele>167</ele>
        <time>2018-08-30T10:24:10Z</time>
      </trkpt>
      <trkpt lat="50.62193" lon="5.19579">
        <ele>167</ele>
        <time>2018-08-30T10:25:10Z</time>
      </trkpt>
      <trkpt lat="50.62221" lon="5.19556">
        <ele>165</ele>
        <time>2018-08-30T10:26:10Z</time>
      </trkpt>
      <trkpt lat="50.6227" lon="5.19501">
        <ele>163</ele>
        <time>2018-08-30T10:27:10Z</time>
      </trkpt>
      <trkpt lat="50.62323" lon="5.19445">
        <ele>164</ele>
        <time>2018-08-30T10:28:10Z</time>
      </trkpt>
      <trkpt lat="50.62376" lon="5.19392">
        <ele>163</ele>
        <time>2018-08-30T10:29:10Z</time>
      </trkpt>
      <trkpt lat="50.62433" lon="5.19338">
        <ele>161</ele>
        <time>2018-08-30T10:30:10Z</time>
      </trkpt>
      <trkpt lat="50.62497" lon="5.19297">
        <ele>162</ele>
        <time>2018-08-30T10:31:10Z</time>
      </trkpt>
      <trkpt lat="50.62528" lon="5.19279">
        <ele>162</ele>
        <time>2018-08-30T10:32:10Z</time>
      </trkpt>
      <trkpt lat="50.62587" lon="5.19231">
        <ele>162</ele>
        <time>2018-08-30T10:33:10Z</time>
      </trkpt>
      <trkpt lat="50.62638" lon="5.19166">
        <ele>163</ele>
        <time>2018-08-30T10:34:10Z</time>
      </trkpt>
      <trkpt lat="50.62656" lon="5.19133">
        <ele>163</ele>
        <time>2018-08-30T10:35:10Z</time>
      </trkpt>
      <trkpt lat="50.62665" lon="5.19154">
        <ele>163</ele>
        <time>2018-08-30T10:36:10Z</time>
      </trkpt>
      <trkpt lat="50.62691" lon="5.19189">
        <ele>162</ele>
        <time>2018-08-30T10:37:10Z</time>
      </trkpt>
      <trkpt lat="50.62731" lon="5.19243">
        <ele>161</ele>
        <time>2018-08-30T10:38:10Z</time>
      </trkpt>
      <trkpt lat="50.62793" lon="5.19301">
        <ele>158</ele>
        <time>2018-08-30T10:39:10Z</time>
      </trkpt>
      <trkpt lat="50.62834" lon="5.19338">
        <ele>156</ele>
        <time>2018-08-30T10:40:10Z</time>
      </trkpt>
      <trkpt lat="50.62882" lon="5.19373">
        <ele>155</ele>
        <time>2018-08-30T10:41:10Z</time>
      </trkpt>
      <trkpt lat="50.62921" lon="5.19399">
        <ele>154</ele>
        <time>2018-08-30T10:42:10Z</time>
      </trkpt>
      <trkpt lat="50.6297" lon="5.19431">
        <ele>154</ele>
        <time>2018-08-30T10:43:10Z</time>
      </trkpt>
      <trkpt lat="50.63039" lon="5.19476">
        <ele>155</ele>
        <time>2018-08-30T10:44:10Z</time>
      </trkpt>
      <trkpt lat="50.6309" lon="5.19507">
        <ele>154</ele>
        <time>2018-08-30T10:45:10Z</time>
      </trkpt>
      <trkpt lat="50.63124" lon="5.19523">
        <ele>154</ele>
        <time>2018-08-30T10:46:10Z</time>
      </trkpt>
      <trkpt lat="50.63245" lon="5.19563">
        <ele>155</ele>
        <time>2018-08-30T10:47:10Z</time>
      </trkpt>
      <trkpt lat="50.63289" lon="5.19591">
        <ele>155</ele>
        <time>2018-08-30T10:48:10Z</time>
      </trkpt>
      <trkpt lat="50.6334" lon="5.19622">
        <ele>154</ele>
        <time>2018-08-30T10:49:10Z</time>
      </trkpt>
      <trkpt lat="50.63406" lon="5.19665">
        <ele>155</ele>
        <time>2018-08-30T10:50:10Z</time>
      </trkpt>
      <trkpt lat="50.63457" lon="5.19697">
        <ele>155</ele>
        <time>2018-08-30T10:51:10Z</time>
      </trkpt>
      <trkpt lat="50.63489" lon="5.19729">
        <ele>155</ele>
        <time>2018-08-30T10:52:10Z</time>
      </trkpt>
      <trkpt lat="50.6354" lon="5.19803">
        <ele>156</ele>
        <time>2018-08-30T10:53:10Z</time>
      </trkpt>
      <trkpt lat="50.63591" lon="5.19881">
        <ele>157</ele>
        <time>2018-08-30T10:54:10Z</time>
      </trkpt>
      <trkpt lat="50.63681" lon="5.20015">
        <ele>156</ele>
        <time>2018-08-30T10:55:10Z</time>
      </trkpt>
      <trkpt lat="50.63723" lon="5.20081">
        <ele>154</ele>
        <time>2018-08-30T10:56:10Z</time>
      </trkpt>
      <trkpt lat="50.63761" lon="5.20144">
        <ele>153</ele>
        <time>2018-08-30T10:57:10Z</time>
      </trkpt>
      <trkpt lat="50.638" lon="5.20207">
        <ele>152</ele>
        <time>2018-08-30T10:58:10Z</time>
      </trkpt>
      <trkpt lat="50.63833" lon="5.20267">
        <ele>151</ele>
        <time>2018-08-30T10:59:10Z</time>
      </trkpt>
      <trkpt lat="50.63879" lon="5.20345">
        <ele>153</ele>
        <time>2018-08-30T11:00:10Z</time>
      </trkpt>
      <trkpt lat="50.63916" lon="5.20419">
        <ele>154</ele>
        <time>2018-08-30T11:01:10Z</time>
      </trkpt>
      <trkpt lat="50.63956" lon="5.20518">
        <ele>152</ele>
        <time>2018-08-30T11:02:10Z</time>
      </trkpt>
      <trkpt lat="50.63996" lon="5.20604">
        <ele>151</ele>
        <time>2018-08-30T11:03:10Z</time>
      </trkpt>
      <trkpt lat="50.64006" lon="5.20627">
        <ele>150</ele>
        <time>2018-08-30T11:04:10Z</time>
      </trkpt>
      <trkpt lat="50.64046" lon="5.20713">
        <ele>150</ele>
        <time>2018-08-30T11:05:10Z</time>
      </trkpt>
      <trkpt lat="50.64068" lon="5.20757">
        <ele>150</ele>
        <time>2018-08-30T11:06:10Z</time>
      </trkpt>
      <trkpt lat="50.64079" lon="5.20804">
        <ele>151</ele>
        <time>2018-08-30T11:07:10Z</time>
      </trkpt>
      <trkpt lat="50.6408" lon="5.20871">
        <ele>152</ele>
        <time>2018-08-30T11:08:10Z</time>
      </trkpt>
      <trkpt lat="50.64079" lon="5.2092">
        <ele>154</ele>
        <time>2018-08-30T11:09:10Z</time>
      </trkpt>
      <trkpt lat="50.64079" lon="5.20966">
        <ele>154</ele>
        <time>2018-08-30T11:10:10Z</time>
      </trkpt>
      <trkpt lat="50.64118" lon="5.20992">
        <ele>154</ele>
        <time>2018-08-30T11:11:10Z</time>
      </trkpt>
      <trkpt lat="50.64126" lon="5.21001">
        <ele>155</ele>
        <time>2018-08-30T11:12:10Z</time>
      </trkpt>
      <trkpt lat="50.64113" lon="5.211">
        <ele>155.1</ele>
        <time>2018-08-30T11:13:10Z</time>
      </trkpt>
      <trkpt lat="50.6409" lon="5.21269">
        <ele>156</ele>
        <time>2018-08-30T11:14:10Z</time>
      </trkpt>
      <trkpt lat="50.64061" lon="5.21386">
        <ele>157</ele>
        <time>2018-08-30T11:15:10Z</time>
      </trkpt>
      <trkpt lat="50.6402" lon="5.21583">
        <ele>158</ele>
        <time>2018-08-30T11:16:10Z</time>
      </trkpt>
      <trkpt lat="50.64013" lon="5.21722">
        <ele>157.5</ele>
        <time>2018-08-30T11:22:10Z</time>
      </trkpt>
      <trkpt lat="50.6402" lon="5.21766">
        <ele>157.1</ele>
        <time>2018-08-30T11:23:10Z</time>
      </trkpt>
      <trkpt lat="50.64003" lon="5.21826">
        <ele>156.3</ele>
      </trkpt>
      <trkpt lat="50.63977" lon="5.21946">
        <ele>156</ele>
      </trkpt>
      <trkpt lat="50.64034" lon="5.22026">
        <ele>153.8</ele>
      </trkpt>
      <trkpt lat="50.64147" lon="5.22097">
        <ele>151.7</ele>
        <time>2018-08-30T11:25:10Z</time>
      </trkpt>
      <trkpt lat="50.64222" lon="5.22182">
        <ele>150</ele>
        <time>2018-08-30T11:26:10Z</time>
      </trkpt>
      <trkpt lat="50.6427" lon="5.22268">
        <ele>149.3</ele>
        <time>2018-08-30T11:27:10Z</time>
      </trkpt>
      <trkpt lat="50.64325" lon="5.22374">
        <ele>148</ele>
        <time>2018-08-30T11:32:10Z</time>
      </trkpt>
      <trkpt lat="50.64341" lon="5.22404">
        <ele>148</ele>
        <time>2018-08-30T11:33:10Z</time>
      </trkpt>
      <trkpt lat="50.64365" lon="5.22434">
        <ele>147</ele>
        <time>2018-08-30T11:34:10Z</time>
      </trkpt>
      <trkpt lat="50.64388" lon="5.22459">
        <ele>149</ele>
      </trkpt>
      <trkpt lat="50.64425" lon="5.22455">
        <ele>148.2</ele>
        <time>2018-08-30T11:35:10Z</time>
      </trkpt>
      <trkpt lat="50.64499" lon="5.2245">
        <ele>146.2</ele>
        <time>2018-08-30T11:36:10Z</time>
      </trkpt>
      <trkpt lat="50.64605" lon="5.22462">
        <ele>145.5</ele>
        <time>2018-08-30T11:37:10Z</time>
      </trkpt>
      <trkpt lat="50.64664" lon="5.2249">
        <ele>145</ele>
        <time>2018-08-30T11:38:10Z</time>
      </trkpt>
      <trkpt lat="50.64758" lon="5.22612">
        <ele>144</ele>
        <time>2018-08-30T11:39:10Z</time>
      </trkpt>
      <trkpt lat="50.6488" lon="5.22785">
        <ele>143.3</ele>
        <time>2018-08-30T11:40:10Z</time>
      </trkpt>
      <trkpt lat="50.65029" lon="5.22975">
        <ele>142</ele>
        <time>2018-08-30T11:42:10Z</time>
      </trkpt>
      <trkpt lat="50.65167" lon="5.23139">
        <ele>141</ele>
      </trkpt>
      <trkpt lat="50.65389" lon="5.23288">
        <ele>139.6</ele>
        <time>2018-08-30T11:49:10Z</time>
      </trkpt>
      <trkpt lat="50.65534" lon="5.23388">
        <ele>138.8</ele>
      </trkpt>
      <trkpt lat="50.65542" lon="5.23653">
        <ele>139.3</ele>
      </trkpt>
      <trkpt lat="50.65528" lon="5.2387">
        <ele>141.3</ele>
      </trkpt>
      <trkpt lat="50.65475" lon="5.24148">
        <ele>147.3</ele>
      </trkpt>
      <trkpt lat="50.65473" lon="5.24321">
        <ele>149</ele>
        <time>2018-08-30T12:02:10Z</time>
      </trkpt>
      <trkpt lat="50.65393" lon="5.24473">
        <ele>146</ele>
        <time>2018-08-30T12:06:10Z</time>
      </trkpt>
      <trkpt lat="50.65386" lon="5.24489">
        <ele>145</ele>
        <time>2018-08-30T12:07:10Z</time>
      </trkpt>
      <trkpt lat="50.65375" lon="5.24524">
        <ele>144</ele>
        <time>2018-08-30T12:08:10Z</time>
      </trkpt>
      <trkpt lat="50.65368" lon="5.24547">
        <ele>144</ele>
        <time>2018-08-30T12:09:10Z</time>
      </trkpt>
      <trkpt lat="50.65362" lon="5.24574">
        <ele>143</ele>
        <time>2018-08-30T12:10:10Z</time>
      </trkpt>
      <trkpt lat="50.65354" lon="5.24598">
        <ele>142</ele>
        <time>2018-08-30T12:11:10Z</time>
      </trkpt>
      <trkpt lat="50.65351" lon="5.24623">
        <ele>142</ele>
        <time>2018-08-30T12:12:10Z</time>
      </trkpt>
      <trkpt lat="50.65336" lon="5.2465">
        <ele>141</ele>
        <time>2018-08-30T12:13:10Z</time>
      </trkpt>
      <trkpt lat="50.65311" lon="5.24691">
        <ele>141</ele>
        <time>2018-08-30T12:14:10Z</time>
      </trkpt>
      <trkpt lat="50.65287" lon="5.24713">
        <ele>141</ele>
        <time>2018-08-30T12:15:10Z</time>
      </trkpt>
      <trkpt lat="50.6526" lon="5.24722">
        <ele>141</ele>
        <time>2018-08-30T12:16:10Z</time>
      </trkpt>
      <trkpt lat="50.65239" lon="5.24731">
        <ele>141</ele>
        <time>2018-08-30T12:17:10Z</time>
      </trkpt>
      <trkpt lat="50.65216" lon="5.2475">
        <ele>141</ele>
        <time>2018-08-30T12:18:10Z</time>
      </trkpt>
      <trkpt lat="50.6515" lon="5.2484">
        <ele>142</ele>
        <time>2018-08-30T12:19:10Z</time>
      </trkpt>
      <trkpt lat="50.65118" lon="5.24882">
        <ele>143</ele>
        <time>2018-08-30T12:20:10Z</time>
      </trkpt>
      <trkpt lat="50.65107" lon="5.24916">
        <ele>144</ele>
        <time>2018-08-30T12:21:10Z</time>
      </trkpt>
      <trkpt lat="50.65072" lon="5.25002">
        <ele>144</ele>
        <time>2018-08-30T12:22:10Z</time>
      </trkpt>
      <trkpt lat="50.65055" lon="5.25045">
        <ele>144</ele>
        <time>2018-08-30T12:23:10Z</time>
      </trkpt>
      <trkpt lat="50.65027" lon="5.25111">
        <ele>143</ele>
        <time>2018-08-30T12:24:10Z</time>
      </trkpt>
      <trkpt lat="50.64994" lon="5.25146">
        <ele>143</ele>
        <time>2018-08-30T12:25:10Z</time>
      </trkpt>
      <trkpt lat="50.64939" lon="5.25199">
        <ele>143</ele>
        <time>2018-08-30T12:26:10Z</time>
      </trkpt>
      <trkpt lat="50.64879" lon="5.25244">
        <ele>142</ele>
        <time>2018-08-30T12:27:10Z</time>
      </trkpt>
      <trkpt lat="50.64837" lon="5.25293">
        <ele>143</ele>
        <time>2018-08-30T12:28:10Z</time>
      </trkpt>
      <trkpt lat="50.64794" lon="5.25358">
        <ele>145</ele>
        <time>2018-08-30T12:29:10Z</time>
      </trkpt>
      <trkpt lat="50.64757" lon="5.25419">
        <ele>146</ele>
        <time>2018-08-30T12:30:10Z</time>
      </trkpt>
      <trkpt lat="50.64719" lon="5.25481">
        <ele>148</ele>
        <time>2018-08-30T12:31:10Z</time>
      </trkpt>
      <trkpt lat="50.64635" lon="5.2561">
        <ele>152</ele>
        <time>2018-08-30T12:32:10Z</time>
      </trkpt>
      <trkpt lat="50.64585" lon="5.25694">
        <ele>154</ele>
        <time>2018-08-30T12:33:10Z</time>
      </trkpt>
      <trkpt lat="50.64565" lon="5.25734">
        <ele>154</ele>
        <time>2018-08-30T12:34:10Z</time>
      </trkpt>
      <trkpt lat="50.64546" lon="5.25781">
        <ele>154</ele>
        <time>2018-08-30T12:35:10Z</time>
      </trkpt>
      <trkpt lat="50.64518" lon="5.25856">
        <ele>153</ele>
        <time>2018-08-30T12:36:10Z</time>
      </trkpt>
      <trkpt lat="50.64492" lon="5.25934">
        <ele>151</ele>
        <time>2018-08-30T12:37:10Z</time>
      </trkpt>
      <trkpt lat="50.64462" lon="5.26014">
        <ele>149</ele>
        <time>2018-08-30T12:38:10Z</time>
      </trkpt>
      <trkpt lat="50.6443" lon="5.26096">
        <ele>149</ele>
        <time>2018-08-30T12:39:10Z</time>
      </trkpt>
      <trkpt lat="50.64406" lon="5.26161">
        <ele>149</ele>
        <time>2018-08-30T12:40:10Z</time>
      </trkpt>
      <trkpt lat="50.64373" lon="5.26226">
        <ele>151</ele>
        <time>2018-08-30T12:41:10Z</time>
      </trkpt>
      <trkpt lat="50.64344" lon="5.26268">
        <ele>152</ele>
        <time>2018-08-30T12:42:10Z</time>
      </trkpt>
      <trkpt lat="50.6432" lon="5.26323">
        <ele>151</ele>
        <time>2018-08-30T12:43:10Z</time>
      </trkpt>
      <trkpt lat="50.6431" lon="5.26358">
        <ele>151</ele>
        <time>2018-08-30T12:44:10Z</time>
      </trkpt>
      <trkpt lat="50.64305" lon="5.26392">
        <ele>150</ele>
        <time>2018-08-30T12:45:10Z</time>
      </trkpt>
      <trkpt lat="50.6429" lon="5.26493">
        <ele>150</ele>
        <time>2018-08-30T12:46:10Z</time>
      </trkpt>
      <trkpt lat="50.64278" lon="5.26555">
        <ele>150</ele>
        <time>2018-08-30T12:47:10Z</time>
      </trkpt>
      <trkpt lat="50.64271" lon="5.26576">
        <ele>150</ele>
        <time>2018-08-30T12:48:10Z</time>
      </trkpt>
      <trkpt lat="50.64239" lon="5.26656">
        <ele>151</ele>
        <time>2018-08-30T12:49:10Z</time>
      </trkpt>
      <trkpt lat="50.64205" lon="5.26732">
        <ele>153</ele>
        <time>2018-08-30T12:50:10Z</time>
      </trkpt>
      <trkpt lat="50.64153" lon="5.26828">
        <ele>156</ele>
        <time>2018-08-30T12:51:10Z</time>
      </trkpt>
      <trkpt lat="50.64134" lon="5.2687">
        <ele>157</ele>
        <time>2018-08-30T12:52:10Z</time>
      </trkpt>
      <trkpt lat="50.64123" lon="5.2689">
        <ele>158</ele>
        <time>2018-08-30T12:53:10Z</time>
      </trkpt>
      <trkpt lat="50.64123" lon="5.26911">
        <ele>158</ele>
        <time>2018-08-30T12:54:10Z</time>
      </trkpt>
      <trkpt lat="50.64139" lon="5.26932">
        <ele>158</ele>
        <time>2018-08-30T12:55:10Z</time>
      </trkpt>
      <trkpt lat="50.6415" lon="5.26988">
        <ele>159</ele>
        <time>2018-08-30T12:56:10Z</time>
      </trkpt>
      <trkpt lat="50.64196" lon="5.2697">
        <ele>160</ele>
        <time>2018-08-30T12:57:10Z</time>
      </trkpt>
      <trkpt lat="50.64258" lon="5.27025">
        <ele>159.7</ele>
        <time>2018-08-30T12:58:10Z</time>
      </trkpt>
      <trkpt lat="50.64377" lon="5.27053">
        <ele>156.4</ele>
        <time>2018-08-30T12:59:10Z</time>
      </trkpt>
      <trkpt lat="50.64481" lon="5.27161">
        <ele>157</ele>
        <time>2018-08-30T13:00:10Z</time>
      </trkpt>
      <trkpt lat="50.64622" lon="5.27241">
        <ele>157</ele>
        <time>2018-08-30T13:01:10Z</time>
      </trkpt>
      <trkpt lat="50.64679" lon="5.27231">
        <ele>157</ele>
        <time>2018-08-30T13:04:10Z</time>
      </trkpt>
      <trkpt lat="50.64746" lon="5.27277">
        <ele>158</ele>
      </trkpt>
      <trkpt lat="50.64833" lon="5.27297">
        <ele>157.7</ele>
      </trkpt>
      <trkpt lat="50.65116" lon="5.27404">
        <ele>149.4</ele>
        <time>2018-08-30T13:05:10Z</time>
      </trkpt>
      <trkpt lat="50.65279" lon="5.27522">
        <ele>148.3</ele>
      </trkpt>
      <trkpt lat="50.65545" lon="5.27583">
        <ele>143.4</ele>
      </trkpt>
      <trkpt lat="50.65979" lon="5.27753">
        <ele>140.7</ele>
      </trkpt>
      <trkpt lat="50.66455" lon="5.28093">
        <ele>141.6</ele>
      </trkpt>
      <trkpt lat="50.6652" lon="5.28184">
        <ele>141.3</ele>
      </trkpt>
      <trkpt lat="50.66589" lon="5.28326">
        <ele>143.4</ele>
      </trkpt>
      <trkpt lat="50.66739" lon="5.28411">
        <ele>141.3</ele>
      </trkpt>
      <trkpt lat="50.66758" lon="5.28588">
        <ele>143.3</ele>
      </trkpt>
      <trkpt lat="50.66725" lon="5.28781">
        <ele>142.7</ele>
      </trkpt>
      <trkpt lat="50.6685" lon="5.28975">
        <ele>139</ele>
      </trkpt>
      <trkpt lat="50.67215" lon="5.29979">
        <ele>138.8</ele>
      </trkpt>
      <trkpt lat="50.67645" lon="5.31086">
        <ele>140.2</ele>
      </trkpt>
      <trkpt lat="50.67865" lon="5.31631">
        <ele>130.9</ele>
      </trkpt>
      <trkpt lat="50.67903" lon="5.31801">
        <ele>131.4</ele>
      </trkpt>
      <trkpt lat="50.67947" lon="5.31828">
        <ele>131</ele>
      </trkpt>
      <trkpt lat="50.67998" lon="5.31911">
        <ele>131</ele>
      </trkpt>
      <trkpt lat="50.68033" lon="5.32014">
        <ele>132.1</ele>
      </trkpt>
      <trkpt lat="50.68068" lon="5.32139">
        <ele>135</ele>
      </trkpt>
      <trkpt lat="50.68086" lon="5.3222">
        <ele>135.9</ele>
      </trkpt>
      <trkpt lat="50.68084" lon="5.32232">
        <ele>136</ele>
      </trkpt>
      <trkpt lat="50.68184" lon="5.32339">
        <ele>134.4</ele>
      </trkpt>
      <trkpt lat="50.68208" lon="5.32365">
        <ele>134</ele>
        <extensions>
          <visugpx:TrkExtension xmlns:visugpx="https://www.visugpx.com/editgpx/">
            <visugpx:node>27</visugpx:node>
            </visugpx:TrkExtension>
        </extensions>
      </trkpt>
      <trkpt lat="50.68225" lon="5.32382">
        <ele>133.3</ele>
      </trkpt>
      <trkpt lat="50.68234" lon="5.32372">
        <ele>133.8</ele>
      </trkpt>
      <trkpt lat="50.68251" lon="5.3236">
        <ele>134.1</ele>
      </trkpt>
      <trkpt lat="50.68286" lon="5.32316">
        <ele>133.8</ele>
      </trkpt>
      <trkpt lat="50.68393" lon="5.32195">
        <ele>130</ele>
      </trkpt>
      <trkpt lat="50.68458" lon="5.32119">
        <ele>129</ele>
        <extensions>
          <visugpx:TrkExtension xmlns:visugpx="https://www.visugpx.com/editgpx/">
            <visugpx:node>28</visugpx:node>
            </visugpx:TrkExtension>
        </extensions>
      </trkpt>
      <trkpt lat="50.68626" lon="5.31929">
        <ele>131</ele>
      </trkpt>
      <trkpt lat="50.68666" lon="5.31886">
        <ele>132.1</ele>
      </trkpt>
      <trkpt lat="50.68693" lon="5.31846">
        <ele>133.6</ele>
        <extensions>
          <visugpx:TrkExtension xmlns:visugpx="https://www.visugpx.com/editgpx/">
            <visugpx:node>29</visugpx:node>
            </visugpx:TrkExtension>
        </extensions>
      </trkpt>
      <trkpt lat="50.68716" lon="5.31803">
        <ele>134.1</ele>
      </trkpt>
      <trkpt lat="50.68817" lon="5.31532">
        <ele>131.7</ele>
      </trkpt>
      <trkpt lat="50.68829" lon="5.31506">
        <ele>131</ele>
      </trkpt>
      <trkpt lat="50.68829" lon="5.31506">
        <ele>131</ele>
      </trkpt>
      <trkpt lat="50.68833" lon="5.31489">
        <ele>130.6</ele>
      </trkpt>
      <trkpt lat="50.68946" lon="5.31434">
        <ele>128.6</ele>
      </trkpt>
      <trkpt lat="50.69029" lon="5.31405">
        <ele>128</ele>
      </trkpt>
      <trkpt lat="50.69044" lon="5.31396">
        <ele>127.4</ele>
      </trkpt>
      <trkpt lat="50.69069" lon="5.31376">
        <ele>126.7</ele>
      </trkpt>
      <trkpt lat="50.69079" lon="5.31366">
        <ele>126.9</ele>
      </trkpt>
      <trkpt lat="50.69094" lon="5.31345">
        <ele>127.2</ele>
        <extensions>
          <visugpx:TrkExtension xmlns:visugpx="https://www.visugpx.com/editgpx/">
            <visugpx:node>30</visugpx:node>
            </visugpx:TrkExtension>
        </extensions>
      </trkpt>
      <trkpt lat="50.69098" lon="5.3135">
        <ele>127.2</ele>
      </trkpt>
      <trkpt lat="50.69103" lon="5.31352">
        <ele>127.2</ele>
      </trkpt>
      <trkpt lat="50.69106" lon="5.3135">
        <ele>127.3</ele>
      </trkpt>
      <trkpt lat="50.6911" lon="5.31345">
        <ele>127.6</ele>
      </trkpt>
      <trkpt lat="50.69111" lon="5.31338">
        <ele>127.8</ele>
      </trkpt>
      <trkpt lat="50.6911" lon="5.31331">
        <ele>128</ele>
      </trkpt>
      <trkpt lat="50.69218" lon="5.31221">
        <ele>132</ele>
      </trkpt>
      <trkpt lat="50.69257" lon="5.31156">
        <ele>131.9</ele>
      </trkpt>
      <trkpt lat="50.69301" lon="5.31056">
        <ele>129.4</ele>
        <extensions>
          <visugpx:TrkExtension xmlns:visugpx="https://www.visugpx.com/editgpx/">
            <visugpx:node>31</visugpx:node>
            </visugpx:TrkExtension>
        </extensions>
      </trkpt>
      <trkpt lat="50.69375" lon="5.30806">
        <ele>123</ele>
      </trkpt>
      <trkpt lat="50.6938" lon="5.30788">
        <ele>123</ele>
      </trkpt>
      <trkpt lat="50.69392" lon="5.30726">
        <ele>123</ele>
      </trkpt>
      <trkpt lat="50.69402" lon="5.3066">
        <ele>124.1</ele>
        <extensions>
          <visugpx:TrkExtension xmlns:visugpx="https://www.visugpx.com/editgpx/">
            <visugpx:node>32</visugpx:node>
            </visugpx:TrkExtension>
        </extensions>
      </trkpt>
      <trkpt lat="50.69415" lon="5.30608">
        <ele>124.2</ele>
      </trkpt>
      <trkpt lat="50.69434" lon="5.30544">
        <ele>125.3</ele>
      </trkpt>
      <trkpt lat="50.69498" lon="5.30366">
        <ele>129</ele>
      </trkpt>
      <trkpt lat="50.69515" lon="5.30329">
        <ele>130.5</ele>
      </trkpt>
      <trkpt lat="50.69525" lon="5.30316">
        <ele>130.4</ele>
        <extensions>
          <visugpx:TrkExtension xmlns:visugpx="https://www.visugpx.com/editgpx/">
            <visugpx:node>33</visugpx:node>
            </visugpx:TrkExtension>
        </extensions>
      </trkpt>
      <trkpt lat="50.69563" lon="5.30289">
        <ele>129.7</ele>
      </trkpt>
      <trkpt lat="50.69574" lon="5.30274">
        <ele>128.7</ele>
      </trkpt>
      <trkpt lat="50.69589" lon="5.30248">
        <ele>127.8</ele>
      </trkpt>
      <trkpt lat="50.69596" lon="5.30245">
        <ele>127.4</ele>
        <extensions>
          <visugpx:TrkExtension xmlns:visugpx="https://www.visugpx.com/editgpx/">
            <visugpx:node>34</visugpx:node>
            </visugpx:TrkExtension>
        </extensions>
      </trkpt>
      <trkpt lat="50.69605" lon="5.30245">
        <ele>127.2</ele>
      </trkpt>
      <trkpt lat="50.69653" lon="5.30281">
        <ele>127.1</ele>
      </trkpt>
      <trkpt lat="50.6967" lon="5.30291">
        <ele>127.4</ele>
      </trkpt>
      <trkpt lat="50.69684" lon="5.30289">
        <ele>127.1</ele>
        <extensions>
          <visugpx:TrkExtension xmlns:visugpx="https://www.visugpx.com/editgpx/">
            <visugpx:node>35</visugpx:node>
            </visugpx:TrkExtension>
        </extensions>
      </trkpt>
      <trkpt lat="50.69754" lon="5.30212">
        <ele>127.4</ele>
      </trkpt>
      <trkpt lat="50.69772" lon="5.30207">
        <ele>127.5</ele>
        <extensions>
          <visugpx:TrkExtension xmlns:visugpx="https://www.visugpx.com/editgpx/">
            <visugpx:node>36</visugpx:node>
            </visugpx:TrkExtension>
        </extensions>
      </trkpt>
      <trkpt lat="50.69792" lon="5.302">
        <ele>127.7</ele>
      </trkpt>
      <trkpt lat="50.69811" lon="5.30197">
        <ele>128.1</ele>
      </trkpt>
      <trkpt lat="50.69949" lon="5.30177">
        <ele>129.5</ele>
      </trkpt>
      <trkpt lat="50.6996" lon="5.30182">
        <ele>129.8</ele>
        <extensions>
          <visugpx:TrkExtension xmlns:visugpx="https://www.visugpx.com/editgpx/">
            <visugpx:node>37</visugpx:node>
            </visugpx:TrkExtension>
        </extensions>
      </trkpt>
      <trkpt lat="50.6999" lon="5.30212">
        <ele>130</ele>
      </trkpt>
      <trkpt lat="50.70086" lon="5.30325">
        <ele>129.9</ele>
        <extensions>
          <visugpx:TrkExtension xmlns:visugpx="https://www.visugpx.com/editgpx/">
            <visugpx:node>38</visugpx:node>
            </visugpx:TrkExtension>
        </extensions>
      </trkpt>
      <trkpt lat="50.70148" lon="5.29232">
        <ele>123</ele>
        <extensions>
          <visugpx:TrkExtension xmlns:visugpx="https://www.visugpx.com/editgpx/">
            <visugpx:node>39</visugpx:node>
            </visugpx:TrkExtension>
        </extensions>
      </trkpt>
      <trkpt lat="50.70154" lon="5.29193">
        <ele>123.1</ele>
      </trkpt>
      <trkpt lat="50.70177" lon="5.2917">
        <ele>123.9</ele>
      </trkpt>
      <trkpt lat="50.70163" lon="5.29132">
        <ele>124</ele>
      </trkpt>
      <trkpt lat="50.70168" lon="5.29091">
        <ele>124</ele>
      </trkpt>
      <trkpt lat="50.70175" lon="5.29043">
        <ele>124</ele>
      </trkpt>
      <trkpt lat="50.70188" lon="5.28983">
        <ele>123.5</ele>
      </trkpt>
      <trkpt lat="50.70207" lon="5.28945">
        <ele>123</ele>
      </trkpt>
      <trkpt lat="50.70234" lon="5.28921">
        <ele>121.7</ele>
        <extensions>
          <visugpx:TrkExtension xmlns:visugpx="https://www.visugpx.com/editgpx/">
            <visugpx:node>40</visugpx:node>
            </visugpx:TrkExtension>
        </extensions>
      </trkpt>
      <trkpt lat="50.70251" lon="5.28911">
        <ele>121</ele>
      </trkpt>
      <trkpt lat="50.70252" lon="5.28884">
        <ele>121</ele>
      </trkpt>
      <trkpt lat="50.70383" lon="5.28724">
        <ele>114</ele>
      </trkpt>
      <trkpt lat="50.70393" lon="5.28704">
        <ele>113.9</ele>
        <extensions>
          <visugpx:TrkExtension xmlns:visugpx="https://www.visugpx.com/editgpx/">
            <visugpx:node>41</visugpx:node>
            </visugpx:TrkExtension>
        </extensions>
      </trkpt>
      <trkpt lat="50.70399" lon="5.28685">
        <ele>114.4</ele>
      </trkpt>
      <trkpt lat="50.70402" lon="5.28663">
        <ele>114.8</ele>
      </trkpt>
      <trkpt lat="50.70408" lon="5.28593">
        <ele>114.6</ele>
      </trkpt>
      <trkpt lat="50.70413" lon="5.28572">
        <ele>114.8</ele>
      </trkpt>
      <trkpt lat="50.7042" lon="5.28562">
        <ele>116</ele>
        <extensions>
          <visugpx:TrkExtension xmlns:visugpx="https://www.visugpx.com/editgpx/">
            <visugpx:node>42</visugpx:node>
            </visugpx:TrkExtension>
        </extensions>
      </trkpt>
      <trkpt lat="50.70453" lon="5.28636">
        <ele>120.3</ele>
      </trkpt>
      <trkpt lat="50.70541" lon="5.28842">
        <ele>114</ele>
        <extensions>
          <visugpx:TrkExtension xmlns:visugpx="https://www.visugpx.com/editgpx/">
            <visugpx:node>43</visugpx:node>
            </visugpx:TrkExtension>
        </extensions>
      </trkpt>
      <trkpt lat="50.70752" lon="5.29193">
        <ele>115.9</ele>
      </trkpt>
      <trkpt lat="50.70851" lon="5.29247">
        <ele>114.7</ele>
        <extensions>
          <visugpx:TrkExtension xmlns:visugpx="https://www.visugpx.com/editgpx/">
            <visugpx:node>44</visugpx:node>
            </visugpx:TrkExtension>
        </extensions>
      </trkpt>
      <trkpt lat="50.70865" lon="5.29236">
        <ele>114</ele>
      </trkpt>
      <trkpt lat="50.7093" lon="5.28992">
        <ele>111.1</ele>
      </trkpt>
      <trkpt lat="50.71023" lon="5.28646">
        <ele>114.5</ele>
      </trkpt>
      <trkpt lat="50.71002" lon="5.28421">
        <ele>110</ele>
        <extensions>
          <visugpx:TrkExtension xmlns:visugpx="https://www.visugpx.com/editgpx/">
            <visugpx:node>45</visugpx:node>
            </visugpx:TrkExtension>
        </extensions>
      </trkpt>
      <trkpt lat="50.70997" lon="5.28189">
        <ele>109.1</ele>
      </trkpt>
      <trkpt lat="50.71" lon="5.28105">
        <ele>109</ele>
      </trkpt>
      <trkpt lat="50.7101" lon="5.28089">
        <ele>108.3</ele>
        <extensions>
          <visugpx:TrkExtension xmlns:visugpx="https://www.visugpx.com/editgpx/">
            <visugpx:node>46</visugpx:node>
            </visugpx:TrkExtension>
        </extensions>
      </trkpt>
      <trkpt lat="50.71016" lon="5.28018">
        <ele>108.7</ele>
      </trkpt>
      <trkpt lat="50.71024" lon="5.27934">
        <ele>108.1</ele>
      </trkpt>
      <trkpt lat="50.71032" lon="5.27861">
        <ele>108.8</ele>
        <extensions>
          <visugpx:TrkExtension xmlns:visugpx="https://www.visugpx.com/editgpx/">
            <visugpx:node>47</visugpx:node>
            </visugpx:TrkExtension>
        </extensions>
      </trkpt>
      <trkpt lat="50.71016" lon="5.28048">
        <ele>108.2</ele>
      </trkpt>
      <trkpt lat="50.71013" lon="5.28059">
        <ele>108</ele>
      </trkpt>
      <trkpt lat="50.7101" lon="5.28067">
        <ele>108.3</ele>
        <extensions>
          <visugpx:TrkExtension xmlns:visugpx="https://www.visugpx.com/editgpx/">
            <visugpx:node>48</visugpx:node>
            </visugpx:TrkExtension>
        </extensions>
      </trkpt>
      <trkpt lat="50.71011" lon="5.28071">
        <ele>108.2</ele>
      </trkpt>
      <trkpt lat="50.71006" lon="5.28073">
        <ele>108.6</ele>
      </trkpt>
      <trkpt lat="50.71001" lon="5.28074">
        <ele>109</ele>
        <extensions>
          <visugpx:TrkExtension xmlns:visugpx="https://www.visugpx.com/editgpx/">
            <visugpx:node>49</visugpx:node>
            </visugpx:TrkExtension>
        </extensions>
      </trkpt>
      <trkpt lat="50.71001" lon="5.28094">
        <ele>109</ele>
      </trkpt>
      <trkpt lat="50.71003" lon="5.28101">
        <ele>108.9</ele>
        <extensions>
          <visugpx:TrkExtension xmlns:visugpx="https://www.visugpx.com/editgpx/">
            <visugpx:node>50</visugpx:node>
            </visugpx:TrkExtension>
        </extensions>
      </trkpt>
      <trkpt lat="50.71007" lon="5.28102">
        <ele>108.7</ele>
      </trkpt>
      <trkpt lat="50.7101" lon="5.28099">
        <ele>108.5</ele>
      </trkpt>
      <trkpt lat="50.71018" lon="5.2811">
        <ele>108.3</ele>
      </trkpt>
      <trkpt lat="50.71024" lon="5.28113">
        <ele>108.2</ele>
        <extensions>
          <visugpx:TrkExtension xmlns:visugpx="https://www.visugpx.com/editgpx/">
            <visugpx:node>51</visugpx:node>
            </visugpx:TrkExtension>
        </extensions>
      </trkpt>
      <trkpt lat="50.71068" lon="5.28142">
        <ele>107.5</ele>
      </trkpt>
      <trkpt lat="50.71112" lon="5.28157">
        <ele>108.4</ele>
      </trkpt>
      <trkpt lat="50.71126" lon="5.28169">
        <ele>108.7</ele>
        <extensions>
          <visugpx:TrkExtension xmlns:visugpx="https://www.visugpx.com/editgpx/">
            <visugpx:node>52</visugpx:node>
            </visugpx:TrkExtension>
        </extensions>
      </trkpt>
      <trkpt lat="50.71152" lon="5.28279">
        <ele>111</ele>
        <extensions>
          <visugpx:TrkExtension xmlns:visugpx="https://www.visugpx.com/editgpx/">
            <visugpx:node>53</visugpx:node>
            </visugpx:TrkExtension>
        </extensions>
      </trkpt>
      <trkpt lat="50.71172" lon="5.28289">
        <ele>111.6</ele>
      </trkpt>
      <trkpt lat="50.71182" lon="5.28287">
        <ele>111.9</ele>
      </trkpt>
      <trkpt lat="50.7121" lon="5.28287">
        <ele>112.7</ele>
      </trkpt>
      <trkpt lat="50.71227" lon="5.28286">
        <ele>113.5</ele>
        <extensions>
          <visugpx:TrkExtension xmlns:visugpx="https://www.visugpx.com/editgpx/">
            <visugpx:node>54</visugpx:node>
            </visugpx:TrkExtension>
        </extensions>
      </trkpt>
      <trkpt lat="50.71234" lon="5.28339">
        <ele>114.5</ele>
      </trkpt>
      <trkpt lat="50.71252" lon="5.28415">
        <ele>115.1</ele>
      </trkpt>
      <trkpt lat="50.71267" lon="5.2846">
        <ele>115.8</ele>
      </trkpt>
      <trkpt lat="50.71295" lon="5.28526">
        <ele>116.2</ele>
        <extensions>
          <visugpx:TrkExtension xmlns:visugpx="https://www.visugpx.com/editgpx/">
            <visugpx:node>55</visugpx:node>
            </visugpx:TrkExtension>
        </extensions>
      </trkpt>
      <trkpt lat="50.71329" lon="5.28613">
        <ele>115.6</ele>
      </trkpt>
      <trkpt lat="50.71347" lon="5.28645">
        <ele>115.3</ele>
      </trkpt>
      <trkpt lat="50.7139" lon="5.2871">
        <ele>115.5</ele>
      </trkpt>
      <trkpt lat="50.71422" lon="5.2875">
        <ele>114.4</ele>
      </trkpt>
      <trkpt lat="50.71455" lon="5.28785">
        <ele>114.1</ele>
      </trkpt>
      <trkpt lat="50.71466" lon="5.28799">
        <ele>114</ele>
      </trkpt>
      <trkpt lat="50.71477" lon="5.28815">
        <ele>113.9</ele>
      </trkpt>
      <trkpt lat="50.71487" lon="5.28833">
        <ele>114</ele>
      </trkpt>
      <trkpt lat="50.71492" lon="5.28849">
        <ele>114</ele>
        <extensions>
          <visugpx:TrkExtension xmlns:visugpx="https://www.visugpx.com/editgpx/">
            <visugpx:node>56</visugpx:node>
            </visugpx:TrkExtension>
        </extensions>
      </trkpt>
      <trkpt lat="50.715" lon="5.28887">
        <ele>114</ele>
      </trkpt>
      <trkpt lat="50.71517" lon="5.29007">
        <ele>116.6</ele>
      </trkpt>
      <trkpt lat="50.71542" lon="5.29115">
        <ele>117.5</ele>
      </trkpt>
      <trkpt lat="50.7159" lon="5.2928">
        <ele>117.1</ele>
      </trkpt>
      <trkpt lat="50.71593" lon="5.29297">
        <ele>114.7</ele>
      </trkpt>
      <trkpt lat="50.71599" lon="5.29307">
        <ele>113.8</ele>
      </trkpt>
      <trkpt lat="50.71586" lon="5.2931">
        <ele>113.9</ele>
      </trkpt>
      <trkpt lat="50.71573" lon="5.29316">
        <ele>115.2</ele>
      </trkpt>
      <trkpt lat="50.71554" lon="5.29319">
        <ele>116</ele>
      </trkpt>
      <trkpt lat="50.71525" lon="5.29328">
        <ele>113.2</ele>
      </trkpt>
      <trkpt lat="50.7151" lon="5.2933">
        <ele>112.2</ele>
      </trkpt>
      <trkpt lat="50.7149" lon="5.29336">
        <ele>111.2</ele>
      </trkpt>
      <trkpt lat="50.71448" lon="5.29345">
        <ele>112.8</ele>
      </trkpt>
      <trkpt lat="50.71428" lon="5.29357">
        <ele>111.1</ele>
      </trkpt>
      <trkpt lat="50.71411" lon="5.2937">
        <ele>109.4</ele>
        <extensions>
          <visugpx:TrkExtension xmlns:visugpx="https://www.visugpx.com/editgpx/">
            <visugpx:node>57</visugpx:node>
            </visugpx:TrkExtension>
        </extensions>
      </trkpt>
      <trkpt lat="50.71384" lon="5.2941">
        <ele>107.8</ele>
      </trkpt>
      <trkpt lat="50.71371" lon="5.29437">
        <ele>106.6</ele>
      </trkpt>
      <trkpt lat="50.71355" lon="5.2946">
        <ele>105.6</ele>
      </trkpt>
      <trkpt lat="50.71319" lon="5.29488">
        <ele>106.8</ele>
      </trkpt>
      <trkpt lat="50.71201" lon="5.2956">
        <ele>109.1</ele>
        <extensions>
          <visugpx:TrkExtension xmlns:visugpx="https://www.visugpx.com/editgpx/">
            <visugpx:node>58</visugpx:node>
            </visugpx:TrkExtension>
        </extensions>
      </trkpt>
      <trkpt lat="50.71174" lon="5.29576">
        <ele>109</ele>
      </trkpt>
      <trkpt lat="50.71188" lon="5.29634">
        <ele>109.2</ele>
      </trkpt>
      <trkpt lat="50.71191" lon="5.29654">
        <ele>108.6</ele>
      </trkpt>
      <trkpt lat="50.71187" lon="5.29679">
        <ele>108.3</ele>
      </trkpt>
      <trkpt lat="50.71172" lon="5.29704">
        <ele>108.1</ele>
      </trkpt>
      <trkpt lat="50.71167" lon="5.29717">
        <ele>108</ele>
      </trkpt>
      <trkpt lat="50.71165" lon="5.29727">
        <ele>108</ele>
        <extensions>
          <visugpx:TrkExtension xmlns:visugpx="https://www.visugpx.com/editgpx/">
            <visugpx:node>59</visugpx:node>
            </visugpx:TrkExtension>
        </extensions>
      </trkpt>
      <trkpt lat="50.71164" lon="5.29738">
        <ele>108.1</ele>
      </trkpt>
      <trkpt lat="50.71172" lon="5.29849">
        <ele>107.1</ele>
      </trkpt>
      <trkpt lat="50.71173" lon="5.29895">
        <ele>106.9</ele>
      </trkpt>
      <trkpt lat="50.71153" lon="5.30034">
        <ele>109.4</ele>
      </trkpt>
      <trkpt lat="50.71143" lon="5.30046">
        <ele>108.6</ele>
        <extensions>
          <visugpx:TrkExtension xmlns:visugpx="https://www.visugpx.com/editgpx/">
            <visugpx:node>60</visugpx:node>
            </visugpx:TrkExtension>
        </extensions>
      </trkpt>
      <trkpt lat="50.71127" lon="5.30066">
        <ele>108.9</ele>
      </trkpt>
      <trkpt lat="50.71111" lon="5.30089">
        <ele>109.2</ele>
      </trkpt>
      <trkpt lat="50.71097" lon="5.30114">
        <ele>110.5</ele>
      </trkpt>
      <trkpt lat="50.70913" lon="5.30473">
        <ele>116.4</ele>
      </trkpt>
      <trkpt lat="50.70896" lon="5.30501">
        <ele>114.5</ele>
        <extensions>
          <visugpx:TrkExtension xmlns:visugpx="https://www.visugpx.com/editgpx/">
            <visugpx:node>61</visugpx:node>
            </visugpx:TrkExtension>
        </extensions>
      </trkpt>
      <trkpt lat="50.70871" lon="5.30543">
        <ele>113.3</ele>
      </trkpt>
      <trkpt lat="50.70743" lon="5.30816">
        <ele>116.8</ele>
      </trkpt>
      <trkpt lat="50.70698" lon="5.30964">
        <ele>119.7</ele>
      </trkpt>
      <trkpt lat="50.70673" lon="5.31089">
        <ele>121.2</ele>
      </trkpt>
      <trkpt lat="50.70667" lon="5.31158">
        <ele>123</ele>
        <extensions>
          <visugpx:TrkExtension xmlns:visugpx="https://www.visugpx.com/editgpx/">
            <visugpx:node>62</visugpx:node>
            </visugpx:TrkExtension>
        </extensions>
      </trkpt>
      <trkpt lat="50.70591" lon="5.32404">
        <ele>129.7</ele>
      </trkpt>
      <trkpt lat="50.70534" lon="5.33352">
        <ele>118.7</ele>
        <extensions>
          <visugpx:TrkExtension xmlns:visugpx="https://www.visugpx.com/editgpx/">
            <visugpx:node>63</visugpx:node>
            </visugpx:TrkExtension>
        </extensions>
      </trkpt>
      <trkpt lat="50.70442" lon="5.33416">
        <ele>122.1</ele>
      </trkpt>
      <trkpt lat="50.70349" lon="5.33477">
        <ele>126.4</ele>
      </trkpt>
      <trkpt lat="50.70329" lon="5.33488">
        <ele>127.2</ele>
      </trkpt>
      <trkpt lat="50.70258" lon="5.33513">
        <ele>129.2</ele>
      </trkpt>
      <trkpt lat="50.70207" lon="5.33525">
        <ele>125.5</ele>
      </trkpt>
      <trkpt lat="50.70127" lon="5.3355">
        <ele>127.4</ele>
      </trkpt>
      <trkpt lat="50.70104" lon="5.33555">
        <ele>126.7</ele>
      </trkpt>
      <trkpt lat="50.70022" lon="5.33561">
        <ele>125</ele>
      </trkpt>
      <trkpt lat="50.69988" lon="5.33568">
        <ele>125.9</ele>
      </trkpt>
      <trkpt lat="50.69949" lon="5.33583">
        <ele>127.8</ele>
      </trkpt>
      <trkpt lat="50.69889" lon="5.33618">
        <ele>129</ele>
      </trkpt>
      <trkpt lat="50.6988" lon="5.33619">
        <ele>128.6</ele>
      </trkpt>
      <trkpt lat="50.6987" lon="5.33617">
        <ele>127.9</ele>
      </trkpt>
      <trkpt lat="50.69829" lon="5.33599">
        <ele>127.4</ele>
      </trkpt>
      <trkpt lat="50.69803" lon="5.33595">
        <ele>126.8</ele>
      </trkpt>
      <trkpt lat="50.69748" lon="5.336">
        <ele>124.9</ele>
      </trkpt>
      <trkpt lat="50.69732" lon="5.336">
        <ele>123.7</ele>
      </trkpt>
      <trkpt lat="50.69724" lon="5.33597">
        <ele>123.1</ele>
      </trkpt>
      <trkpt lat="50.6972" lon="5.33613">
        <ele>123.4</ele>
        <extensions>
          <visugpx:TrkExtension xmlns:visugpx="https://www.visugpx.com/editgpx/">
            <visugpx:node>64</visugpx:node>
            </visugpx:TrkExtension>
        </extensions>
      </trkpt>
      <trkpt lat="50.69692" lon="5.33729">
        <ele>120.5</ele>
      </trkpt>
      <trkpt lat="50.69685" lon="5.33767">
        <ele>120.5</ele>
      </trkpt>
      <trkpt lat="50.6967" lon="5.33929">
        <ele>116.2</ele>
      </trkpt>
      <trkpt lat="50.69673" lon="5.3396">
        <ele>116.3</ele>
      </trkpt>
      <trkpt lat="50.6967" lon="5.33991">
        <ele>116</ele>
      </trkpt>
      <trkpt lat="50.69626" lon="5.34127">
        <ele>121.8</ele>
      </trkpt>
      <trkpt lat="50.69615" lon="5.34152">
        <ele>121.4</ele>
      </trkpt>
      <trkpt lat="50.69609" lon="5.3416">
        <ele>121.1</ele>
        <extensions>
          <visugpx:TrkExtension xmlns:visugpx="https://www.visugpx.com/editgpx/">
            <visugpx:node>65</visugpx:node>
            </visugpx:TrkExtension>
        </extensions>
      </trkpt>
      <trkpt lat="50.69598" lon="5.34167">
        <ele>121.5</ele>
      </trkpt>
      <trkpt lat="50.69592" lon="5.34167">
        <ele>121.7</ele>
      </trkpt>
      <trkpt lat="50.69553" lon="5.34145">
        <ele>124.1</ele>
      </trkpt>
      <trkpt lat="50.69544" lon="5.34141">
        <ele>124.5</ele>
      </trkpt>
      <trkpt lat="50.69525" lon="5.34137">
        <ele>125.1</ele>
      </trkpt>
      <trkpt lat="50.69516" lon="5.34138">
        <ele>125.5</ele>
      </trkpt>
      <trkpt lat="50.69507" lon="5.34142">
        <ele>125.8</ele>
      </trkpt>
      <trkpt lat="50.69492" lon="5.34151">
        <ele>126.4</ele>
      </trkpt>
      <trkpt lat="50.69483" lon="5.34154">
        <ele>126.6</ele>
      </trkpt>
      <trkpt lat="50.69474" lon="5.34156">
        <ele>126.6</ele>
      </trkpt>
      <trkpt lat="50.69444" lon="5.34154">
        <ele>126</ele>
      </trkpt>
      <trkpt lat="50.69436" lon="5.34152">
        <ele>126.4</ele>
      </trkpt>
      <trkpt lat="50.69427" lon="5.34146">
        <ele>126.8</ele>
      </trkpt>
      <trkpt lat="50.69357" lon="5.34085">
        <ele>127.2</ele>
      </trkpt>
      <trkpt lat="50.69236" lon="5.33984">
        <ele>129.2</ele>
      </trkpt>
      <trkpt lat="50.6918" lon="5.33933">
        <ele>130</ele>
      </trkpt>
      <trkpt lat="50.69161" lon="5.33912">
        <ele>130</ele>
      </trkpt>
      <trkpt lat="50.69145" lon="5.339">
        <ele>130</ele>
        <extensions>
          <visugpx:TrkExtension xmlns:visugpx="https://www.visugpx.com/editgpx/">
            <visugpx:node>66</visugpx:node>
            </visugpx:TrkExtension>
        </extensions>
      </trkpt>
      <trkpt lat="50.69136" lon="5.33896">
        <ele>130.2</ele>
      </trkpt>
      <trkpt lat="50.69137" lon="5.33906">
        <ele>130.1</ele>
      </trkpt>
      <trkpt lat="50.69136" lon="5.33928">
        <ele>130.3</ele>
      </trkpt>
      <trkpt lat="50.69124" lon="5.33991">
        <ele>132.2</ele>
      </trkpt>
      <trkpt lat="50.69092" lon="5.3412">
        <ele>133.8</ele>
      </trkpt>
      <trkpt lat="50.69062" lon="5.34228">
        <ele>134.8</ele>
      </trkpt>
      <trkpt lat="50.69024" lon="5.34329">
        <ele>134.3</ele>
        <extensions>
          <visugpx:TrkExtension xmlns:visugpx="https://www.visugpx.com/editgpx/">
            <visugpx:node>67</visugpx:node>
            </visugpx:TrkExtension>
        </extensions>
      </trkpt>
      <trkpt lat="50.69015" lon="5.34356">
        <ele>134.1</ele>
        <extensions>
          <visugpx:TrkExtension xmlns:visugpx="https://www.visugpx.com/editgpx/">
            <visugpx:node>68</visugpx:node>
            </visugpx:TrkExtension>
        </extensions>
      </trkpt>
      <trkpt lat="50.6892" lon="5.34931">
        <ele>127.9</ele>
      </trkpt>
      <trkpt lat="50.68781" lon="5.35562">
        <ele>139</ele>
      </trkpt>
      <trkpt lat="50.68689" lon="5.35871">
        <ele>138.1</ele>
      </trkpt>
      <trkpt lat="50.68621" lon="5.36051">
        <ele>134.3</ele>
      </trkpt>
      <trkpt lat="50.68566" lon="5.36369">
        <ele>131.4</ele>
      </trkpt>
      <trkpt lat="50.68452" lon="5.36957">
        <ele>139.2</ele>
      </trkpt>
      <trkpt lat="50.68371" lon="5.37236">
        <ele>141.5</ele>
      </trkpt>
      <trkpt lat="50.68265" lon="5.37433">
        <ele>138.2</ele>
      </trkpt>
      <trkpt lat="50.68253" lon="5.37488">
        <ele>138.5</ele>
      </trkpt>
      <trkpt lat="50.68191" lon="5.37679">
        <ele>140.1</ele>
      </trkpt>
      <trkpt lat="50.68122" lon="5.3777">
        <ele>142.3</ele>
      </trkpt>
      <trkpt lat="50.67949" lon="5.38164">
        <ele>148</ele>
      </trkpt>
      <trkpt lat="50.67873" lon="5.38357">
        <ele>152.1</ele>
      </trkpt>
      <trkpt lat="50.67793" lon="5.38564">
        <ele>153.9</ele>
      </trkpt>
      <trkpt lat="50.67616" lon="5.3885">
        <ele>150.1</ele>
      </trkpt>
      <trkpt lat="50.67492" lon="5.39054">
        <ele>153.7</ele>
      </trkpt>
      <trkpt lat="50.67406" lon="5.39104">
        <ele>149.9</ele>
      </trkpt>
      <trkpt lat="50.67204" lon="5.39199">
        <ele>144.9</ele>
      </trkpt>
      <trkpt lat="50.66941" lon="5.3933">
        <ele>146</ele>
      </trkpt>
      <trkpt lat="50.66805" lon="5.39395">
        <ele>147.5</ele>
      </trkpt>
      <trkpt lat="50.66704" lon="5.39519">
        <ele>153.1</ele>
      </trkpt>
      <trkpt lat="50.6665" lon="5.39601">
        <ele>156.1</ele>
      </trkpt>
      <trkpt lat="50.66623" lon="5.3972">
        <ele>157.6</ele>
      </trkpt>
      <trkpt lat="50.66641" lon="5.39805">
        <ele>156.7</ele>
      </trkpt>
      <trkpt lat="50.6662" lon="5.39865">
        <ele>156.3</ele>
      </trkpt>
      <trkpt lat="50.66589" lon="5.39862">
        <ele>156.9</ele>
      </trkpt>
      <trkpt lat="50.66565" lon="5.39878">
        <ele>158.5</ele>
      </trkpt>
      <trkpt lat="50.66526" lon="5.39952">
        <ele>156.8</ele>
      </trkpt>
      <trkpt lat="50.66429" lon="5.39878">
        <ele>157.4</ele>
      </trkpt>
      <trkpt lat="50.66369" lon="5.39852">
        <ele>158</ele>
      </trkpt>
      <trkpt lat="50.66232" lon="5.39879">
        <ele>159.2</ele>
      </trkpt>
      <trkpt lat="50.66068" lon="5.39897">
        <ele>162.1</ele>
      </trkpt>
      <trkpt lat="50.65856" lon="5.3995">
        <ele>164.8</ele>
      </trkpt>
      <trkpt lat="50.65622" lon="5.39985">
        <ele>168.3</ele>
      </trkpt>
      <trkpt lat="50.65415" lon="5.4002">
        <ele>170.7</ele>
      </trkpt>
      <trkpt lat="50.65255" lon="5.4007">
        <ele>170</ele>
      </trkpt>
      <trkpt lat="50.65102" lon="5.40167">
        <ele>171</ele>
      </trkpt>
      <trkpt lat="50.6503" lon="5.40184">
        <ele>171.9</ele>
      </trkpt>
      <trkpt lat="50.64872" lon="5.40308">
        <ele>174</ele>
      </trkpt>
      <trkpt lat="50.64748" lon="5.40252">
        <ele>175</ele>
      </trkpt>
      <trkpt lat="50.64563" lon="5.40157">
        <ele>175.9</ele>
      </trkpt>
      <trkpt lat="50.64435" lon="5.4009">
        <ele>176.2</ele>
      </trkpt>
      <trkpt lat="50.63618" lon="5.39669">
        <ele>168</ele>
      </trkpt>
      <trkpt lat="50.63526" lon="5.39621">
        <ele>165</ele>
        <time>2018-08-30T15:13:10Z</time>
      </trkpt>
      <trkpt lat="50.63522" lon="5.39606">
        <ele>165</ele>
      </trkpt>
      <trkpt lat="50.63515" lon="5.39602">
        <ele>165</ele>
        <time>2018-08-30T15:14:10Z</time>
      </trkpt>
      <trkpt lat="50.63505" lon="5.39611">
        <ele>165</ele>
      </trkpt>
      <trkpt lat="50.63507" lon="5.39623">
        <ele>166</ele>
        <time>2018-08-30T15:15:10Z</time>
      </trkpt>
      <trkpt lat="50.63505" lon="5.39627">
        <ele>165</ele>
      </trkpt>
      <trkpt lat="50.6347" lon="5.39676">
        <ele>167</ele>
        <time>2018-08-30T15:16:10Z</time>
      </trkpt>
      <trkpt lat="50.63374" lon="5.39798">
        <ele>164</ele>
        <time>2018-08-30T15:17:10Z</time>
      </trkpt>
      <trkpt lat="50.63312" lon="5.39879">
        <ele>163</ele>
        <time>2018-08-30T15:18:10Z</time>
      </trkpt>
      <trkpt lat="50.6327" lon="5.39934">
        <ele>162</ele>
        <time>2018-08-30T15:19:10Z</time>
      </trkpt>
      <trkpt lat="50.63226" lon="5.3999">
        <ele>161</ele>
        <time>2018-08-30T15:20:10Z</time>
      </trkpt>
      <trkpt lat="50.63182" lon="5.40049">
        <ele>159</ele>
        <time>2018-08-30T15:21:10Z</time>
      </trkpt>
      <trkpt lat="50.63157" lon="5.4008">
        <ele>158</ele>
        <time>2018-08-30T15:22:10Z</time>
      </trkpt>
      <trkpt lat="50.63111" lon="5.4014">
        <ele>159</ele>
        <time>2018-08-30T15:23:10Z</time>
      </trkpt>
      <trkpt lat="50.62955" lon="5.40342">
        <ele>163</ele>
        <time>2018-08-30T15:24:10Z</time>
      </trkpt>
      <trkpt lat="50.629" lon="5.40414">
        <ele>162</ele>
        <time>2018-08-30T15:25:10Z</time>
      </trkpt>
      <trkpt lat="50.62819" lon="5.40519">
        <ele>155</ele>
        <time>2018-08-30T15:26:10Z</time>
      </trkpt>
      <trkpt lat="50.62765" lon="5.40588">
        <ele>157</ele>
        <time>2018-08-30T15:27:10Z</time>
      </trkpt>
      <trkpt lat="50.62689" lon="5.40686">
        <ele>162.3</ele>
        <extensions>
          <visugpx:TrkExtension xmlns:visugpx="https://www.visugpx.com/editgpx/">
            <visugpx:node>73</visugpx:node>
            </visugpx:TrkExtension>
        </extensions>
      </trkpt>
      <trkpt lat="50.62306" lon="5.41181">
        <ele>177</ele>
      </trkpt>
      <trkpt lat="50.62227" lon="5.41085">
        <ele>178</ele>
      </trkpt>
      <trkpt lat="50.62072" lon="5.41134">
        <ele>181.3</ele>
      </trkpt>
      <trkpt lat="50.61914" lon="5.41225">
        <ele>183</ele>
      </trkpt>
      <trkpt lat="50.62017" lon="5.41545">
        <ele>186</ele>
      </trkpt>
      <trkpt lat="50.61914" lon="5.41701">
        <ele>187</ele>
      </trkpt>
      <trkpt lat="50.6189" lon="5.41923">
        <ele>188</ele>
      </trkpt>
      <trkpt lat="50.61907" lon="5.42264">
        <ele>189.8</ele>
      </trkpt>
      <trkpt lat="50.6183" lon="5.42439">
        <ele>193</ele>
      </trkpt>
      <trkpt lat="50.61807" lon="5.4253">
        <ele>192</ele>
      </trkpt>
      <trkpt lat="50.61814" lon="5.42596">
        <ele>190.4</ele>
        <time>2018-08-30T15:54:10Z</time>
        <extensions>
          <visugpx:TrkExtension xmlns:visugpx="https://www.visugpx.com/editgpx/">
            <visugpx:node>74</visugpx:node>
            </visugpx:TrkExtension>
        </extensions>
      </trkpt>
      <trkpt lat="50.61818" lon="5.42635">
        <ele>188.6</ele>
      </trkpt>
      <trkpt lat="50.61816" lon="5.42671">
        <ele>188</ele>
        <time>2018-08-30T15:55:10Z</time>
      </trkpt>
      <trkpt lat="50.61808" lon="5.42716">
        <ele>185</ele>
        <time>2018-08-30T15:56:10Z</time>
      </trkpt>
      <trkpt lat="50.61799" lon="5.42756">
        <ele>184</ele>
        <time>2018-08-30T15:57:10Z</time>
      </trkpt>
      <trkpt lat="50.61789" lon="5.42784">
        <ele>184</ele>
        <time>2018-08-30T15:58:10Z</time>
      </trkpt>
      <trkpt lat="50.61772" lon="5.42832">
        <ele>186</ele>
        <time>2018-08-30T15:59:10Z</time>
      </trkpt>
      <trkpt lat="50.61764" lon="5.42863">
        <ele>185</ele>
        <time>2018-08-30T16:00:10Z</time>
      </trkpt>
      <trkpt lat="50.6177" lon="5.42888">
        <ele>186</ele>
        <time>2018-08-30T16:01:10Z</time>
      </trkpt>
      <trkpt lat="50.61791" lon="5.42917">
        <ele>188</ele>
        <time>2018-08-30T16:02:10Z</time>
      </trkpt>
      <trkpt lat="50.61831" lon="5.42957">
        <ele>191</ele>
        <time>2018-08-30T16:03:10Z</time>
      </trkpt>
      <trkpt lat="50.61859" lon="5.42994">
        <ele>191</ele>
        <time>2018-08-30T16:04:10Z</time>
      </trkpt>
      <trkpt lat="50.61904" lon="5.43061">
        <ele>189</ele>
        <time>2018-08-30T16:05:10Z</time>
      </trkpt>
      <trkpt lat="50.61953" lon="5.43127">
        <ele>190</ele>
        <time>2018-08-30T16:06:10Z</time>
      </trkpt>
      <trkpt lat="50.61975" lon="5.43151">
        <ele>190</ele>
        <time>2018-08-30T16:07:10Z</time>
      </trkpt>
      <trkpt lat="50.62032" lon="5.43184">
        <ele>191</ele>
        <time>2018-08-30T16:08:10Z</time>
      </trkpt>
      <trkpt lat="50.62044" lon="5.43194">
        <ele>191</ele>
        <time>2018-08-30T16:09:10Z</time>
      </trkpt>
      <trkpt lat="50.62099" lon="5.43252">
        <ele>191</ele>
        <time>2018-08-30T16:10:10Z</time>
      </trkpt>
      <trkpt lat="50.62147" lon="5.43304">
        <ele>193</ele>
        <time>2018-08-30T16:11:10Z</time>
      </trkpt>
      <trkpt lat="50.62155" lon="5.43316">
        <ele>193</ele>
        <time>2018-08-30T16:12:10Z</time>
      </trkpt>
      <trkpt lat="50.62186" lon="5.43403">
        <ele>190</ele>
        <time>2018-08-30T16:13:10Z</time>
      </trkpt>
      <trkpt lat="50.62205" lon="5.43462">
        <ele>189</ele>
        <time>2018-08-30T16:14:10Z</time>
      </trkpt>
      <trkpt lat="50.62206" lon="5.43487">
        <ele>188</ele>
        <time>2018-08-30T16:15:10Z</time>
      </trkpt>
      <trkpt lat="50.62217" lon="5.43514">
        <ele>188</ele>
        <time>2018-08-30T16:16:10Z</time>
      </trkpt>
      <trkpt lat="50.62232" lon="5.43525">
        <ele>189</ele>
        <time>2018-08-30T16:17:10Z</time>
      </trkpt>
      <trkpt lat="50.62271" lon="5.43627">
        <ele>186</ele>
        <time>2018-08-30T16:18:10Z</time>
      </trkpt>
      <trkpt lat="50.62293" lon="5.43681">
        <ele>184</ele>
        <time>2018-08-30T16:19:10Z</time>
      </trkpt>
      <trkpt lat="50.62325" lon="5.43772">
        <ele>183</ele>
        <time>2018-08-30T16:20:10Z</time>
      </trkpt>
      <trkpt lat="50.62341" lon="5.43833">
        <ele>182</ele>
        <time>2018-08-30T16:21:10Z</time>
      </trkpt>
      <trkpt lat="50.62364" lon="5.43949">
        <ele>185</ele>
        <time>2018-08-30T16:22:10Z</time>
      </trkpt>
      <trkpt lat="50.6237" lon="5.43979">
        <ele>186</ele>
        <time>2018-08-30T16:23:10Z</time>
      </trkpt>
      <trkpt lat="50.62368" lon="5.44007">
        <ele>186</ele>
        <time>2018-08-30T16:24:10Z</time>
      </trkpt>
      <trkpt lat="50.62335" lon="5.4407">
        <ele>185</ele>
        <time>2018-08-30T16:25:10Z</time>
      </trkpt>
      <trkpt lat="50.62309" lon="5.44119">
        <ele>185</ele>
        <time>2018-08-30T16:26:10Z</time>
      </trkpt>
      <trkpt lat="50.62303" lon="5.44141">
        <ele>185</ele>
        <time>2018-08-30T16:27:10Z</time>
      </trkpt>
      <trkpt lat="50.623" lon="5.44173">
        <ele>186</ele>
        <time>2018-08-30T16:28:10Z</time>
      </trkpt>
      <trkpt lat="50.62305" lon="5.44204">
        <ele>186</ele>
        <time>2018-08-30T16:29:10Z</time>
      </trkpt>
      <trkpt lat="50.62316" lon="5.44252">
        <ele>187</ele>
        <time>2018-08-30T16:30:10Z</time>
      </trkpt>
      <trkpt lat="50.62336" lon="5.4434">
        <ele>186</ele>
        <time>2018-08-30T16:31:10Z</time>
      </trkpt>
      <trkpt lat="50.62338" lon="5.44357">
        <ele>186</ele>
        <time>2018-08-30T16:32:10Z</time>
      </trkpt>
      <trkpt lat="50.62345" lon="5.44411">
        <ele>185</ele>
        <time>2018-08-30T16:33:10Z</time>
      </trkpt>
      <trkpt lat="50.6235" lon="5.44489">
        <ele>186</ele>
        <time>2018-08-30T16:34:10Z</time>
      </trkpt>
      <trkpt lat="50.62351" lon="5.44582">
        <ele>188</ele>
        <time>2018-08-30T16:35:10Z</time>
      </trkpt>
      <trkpt lat="50.62349" lon="5.44608">
        <ele>189</ele>
        <time>2018-08-30T16:36:10Z</time>
      </trkpt>
      <trkpt lat="50.6234" lon="5.44692">
        <ele>189</ele>
        <time>2018-08-30T16:37:10Z</time>
      </trkpt>
      <trkpt lat="50.62331" lon="5.44785">
        <ele>188</ele>
        <time>2018-08-30T16:38:10Z</time>
      </trkpt>
      <trkpt lat="50.62327" lon="5.44813">
        <ele>190.9</ele>
        <extensions>
          <visugpx:TrkExtension xmlns:visugpx="https://www.visugpx.com/editgpx/">
            <visugpx:node>75</visugpx:node>
            </visugpx:TrkExtension>
        </extensions>
      </trkpt>
    </trkseg>
  </trk>
</gpx>